<?xml version="1.0" encoding="UTF-8" standalone="no" ?>
<gpx xmlns="http://www.topografix.com/GPX/1/1" xmlns:xsi="http://www.w3.org/2001/XMLSchema-instance" xsi:schemaLocation="http://www.topografix.com/GPX/1/1 http://www.topografix.com/GPX/1/1/gpx.xsd" version="1.1" creator="VisuGPX - https://www.visugpx.com">
  <metadata>
    <name>Roc de la Vigne</name>
    <desc><![CDATA[Roc de la Vigne départ Mas d'Aubert]]></desc>
  </metadata>
  <trk>
    <name><![CDATA[19-FEV-15 12:10:39]]></name>
    <trkseg>
      <trkpt lat="43.77771" lon="3.53975">
        <ele>549.53</ele>
        <time>2015-02-19T07:39:17Z</time>
      </trkpt>
      <trkpt lat="43.77771" lon="3.53975">
        <ele>549.53</ele>
        <time>2015-02-19T07:39:29Z</time>
      </trkpt>
      <trkpt lat="43.77771" lon="3.53976">
        <ele>549.53</ele>
        <time>2015-02-19T07:39:57Z</time>
      </trkpt>
      <trkpt lat="43.77772" lon="3.53976">
        <ele>549.53</ele>
        <time>2015-02-19T07:40:18Z</time>
      </trkpt>
      <trkpt lat="43.77772" lon="3.53976">
        <ele>550.01</ele>
        <time>2015-02-19T07:40:36Z</time>
      </trkpt>
      <trkpt lat="43.77771" lon="3.53976">
        <ele>550.01</ele>
        <time>2015-02-19T07:41:02Z</time>
      </trkpt>
      <trkpt lat="43.7777" lon="3.53975">
        <ele>550.97</ele>
        <time>2015-02-19T07:41:28Z</time>
      </trkpt>
      <trkpt lat="43.7777" lon="3.53976">
        <ele>551.93</ele>
        <time>2015-02-19T07:41:54Z</time>
      </trkpt>
      <trkpt lat="43.77769" lon="3.53977">
        <ele>552.41</ele>
        <time>2015-02-19T07:42:24Z</time>
      </trkpt>
      <trkpt lat="43.7777" lon="3.53976">
        <ele>552.41</ele>
        <time>2015-02-19T07:42:52Z</time>
      </trkpt>
      <trkpt lat="43.77771" lon="3.53977">
        <ele>551.45</ele>
        <time>2015-02-19T07:43:01Z</time>
      </trkpt>
      <trkpt lat="43.77771" lon="3.53976">
        <ele>551.93</ele>
        <time>2015-02-19T07:43:12Z</time>
      </trkpt>
      <trkpt lat="43.77771" lon="3.53976">
        <ele>552.41</ele>
        <time>2015-02-19T07:43:26Z</time>
      </trkpt>
      <trkpt lat="43.77774" lon="3.53981">
        <ele>552.9</ele>
        <time>2015-02-19T07:43:39Z</time>
      </trkpt>
      <trkpt lat="43.77776" lon="3.53982">
        <ele>552.9</ele>
        <time>2015-02-19T07:43:41Z</time>
      </trkpt>
      <trkpt lat="43.77781" lon="3.5399">
        <ele>553.38</ele>
        <time>2015-02-19T07:43:52Z</time>
      </trkpt>
      <trkpt lat="43.77788" lon="3.54005">
        <ele>553.86</ele>
        <time>2015-02-19T07:44:04Z</time>
      </trkpt>
      <trkpt lat="43.77794" lon="3.5402">
        <ele>555.3</ele>
        <time>2015-02-19T07:44:15Z</time>
      </trkpt>
      <trkpt lat="43.77797" lon="3.54032">
        <ele>555.78</ele>
        <time>2015-02-19T07:44:24Z</time>
      </trkpt>
      <trkpt lat="43.77801" lon="3.54048">
        <ele>555.78</ele>
        <time>2015-02-19T07:44:37Z</time>
      </trkpt>
      <trkpt lat="43.77806" lon="3.54059">
        <ele>557.22</ele>
        <time>2015-02-19T07:44:47Z</time>
      </trkpt>
      <trkpt lat="43.7781" lon="3.54071">
        <ele>558.18</ele>
        <time>2015-02-19T07:44:59Z</time>
      </trkpt>
      <trkpt lat="43.77816" lon="3.54085">
        <ele>558.66</ele>
        <time>2015-02-19T07:45:11Z</time>
      </trkpt>
      <trkpt lat="43.77821" lon="3.54102">
        <ele>559.62</ele>
        <time>2015-02-19T07:45:24Z</time>
      </trkpt>
      <trkpt lat="43.77828" lon="3.54121">
        <ele>560.11</ele>
        <time>2015-02-19T07:45:38Z</time>
      </trkpt>
      <trkpt lat="43.77833" lon="3.54129">
        <ele>560.11</ele>
        <time>2015-02-19T07:45:44Z</time>
      </trkpt>
      <trkpt lat="43.77839" lon="3.54138">
        <ele>560.11</ele>
        <time>2015-02-19T07:45:52Z</time>
      </trkpt>
      <trkpt lat="43.77846" lon="3.54159">
        <ele>560.59</ele>
        <time>2015-02-19T07:46:08Z</time>
      </trkpt>
      <trkpt lat="43.7785" lon="3.54178">
        <ele>561.55</ele>
        <time>2015-02-19T07:46:21Z</time>
      </trkpt>
      <trkpt lat="43.77849" lon="3.54185">
        <ele>562.51</ele>
        <time>2015-02-19T07:46:34Z</time>
      </trkpt>
      <trkpt lat="43.77849" lon="3.542">
        <ele>562.51</ele>
        <time>2015-02-19T07:46:45Z</time>
      </trkpt>
      <trkpt lat="43.77848" lon="3.54219">
        <ele>562.51</ele>
        <time>2015-02-19T07:46:57Z</time>
      </trkpt>
      <trkpt lat="43.77848" lon="3.54237">
        <ele>562.51</ele>
        <time>2015-02-19T07:47:09Z</time>
      </trkpt>
      <trkpt lat="43.77849" lon="3.5426">
        <ele>562.99</ele>
        <time>2015-02-19T07:47:23Z</time>
      </trkpt>
      <trkpt lat="43.77852" lon="3.5428">
        <ele>563.47</ele>
        <time>2015-02-19T07:47:36Z</time>
      </trkpt>
      <trkpt lat="43.77858" lon="3.543">
        <ele>565.87</ele>
        <time>2015-02-19T07:47:49Z</time>
      </trkpt>
      <trkpt lat="43.77865" lon="3.54319">
        <ele>565.87</ele>
        <time>2015-02-19T07:48:02Z</time>
      </trkpt>
      <trkpt lat="43.77865" lon="3.54321">
        <ele>566.35</ele>
        <time>2015-02-19T07:48:03Z</time>
      </trkpt>
      <trkpt lat="43.77867" lon="3.54328">
        <ele>568.28</ele>
        <time>2015-02-19T07:48:07Z</time>
      </trkpt>
      <trkpt lat="43.77874" lon="3.54346">
        <ele>571.16</ele>
        <time>2015-02-19T07:48:21Z</time>
      </trkpt>
      <trkpt lat="43.77879" lon="3.54364">
        <ele>572.12</ele>
        <time>2015-02-19T07:48:34Z</time>
      </trkpt>
      <trkpt lat="43.77882" lon="3.54381">
        <ele>571.64</ele>
        <time>2015-02-19T07:48:46Z</time>
      </trkpt>
      <trkpt lat="43.77887" lon="3.54396">
        <ele>571.64</ele>
        <time>2015-02-19T07:48:56Z</time>
      </trkpt>
      <trkpt lat="43.77892" lon="3.54417">
        <ele>572.6</ele>
        <time>2015-02-19T07:49:08Z</time>
      </trkpt>
      <trkpt lat="43.77898" lon="3.54437">
        <ele>572.12</ele>
        <time>2015-02-19T07:49:21Z</time>
      </trkpt>
      <trkpt lat="43.77899" lon="3.54448">
        <ele>572.12</ele>
        <time>2015-02-19T07:49:29Z</time>
      </trkpt>
      <trkpt lat="43.77893" lon="3.54471">
        <ele>572.6</ele>
        <time>2015-02-19T07:49:44Z</time>
      </trkpt>
      <trkpt lat="43.77888" lon="3.54494">
        <ele>573.08</ele>
        <time>2015-02-19T07:49:58Z</time>
      </trkpt>
      <trkpt lat="43.77885" lon="3.5452">
        <ele>574.04</ele>
        <time>2015-02-19T07:50:12Z</time>
      </trkpt>
      <trkpt lat="43.7789" lon="3.54538">
        <ele>574.04</ele>
        <time>2015-02-19T07:50:25Z</time>
      </trkpt>
      <trkpt lat="43.77891" lon="3.54539">
        <ele>574.04</ele>
        <time>2015-02-19T07:50:26Z</time>
      </trkpt>
      <trkpt lat="43.77905" lon="3.54557">
        <ele>575.49</ele>
        <time>2015-02-19T07:50:41Z</time>
      </trkpt>
      <trkpt lat="43.77909" lon="3.54563">
        <ele>575.49</ele>
        <time>2015-02-19T07:50:54Z</time>
      </trkpt>
      <trkpt lat="43.77915" lon="3.54576">
        <ele>574.53</ele>
        <time>2015-02-19T07:51:05Z</time>
      </trkpt>
      <trkpt lat="43.77922" lon="3.54594">
        <ele>573.56</ele>
        <time>2015-02-19T07:51:18Z</time>
      </trkpt>
      <trkpt lat="43.77928" lon="3.54611">
        <ele>572.6</ele>
        <time>2015-02-19T07:51:28Z</time>
      </trkpt>
      <trkpt lat="43.77931" lon="3.5463">
        <ele>574.04</ele>
        <time>2015-02-19T07:51:40Z</time>
      </trkpt>
      <trkpt lat="43.77925" lon="3.54656">
        <ele>574.53</ele>
        <time>2015-02-19T07:51:55Z</time>
      </trkpt>
      <trkpt lat="43.77924" lon="3.54658">
        <ele>574.53</ele>
        <time>2015-02-19T07:51:56Z</time>
      </trkpt>
      <trkpt lat="43.77921" lon="3.54664">
        <ele>574.53</ele>
        <time>2015-02-19T07:52:02Z</time>
      </trkpt>
      <trkpt lat="43.77914" lon="3.54686">
        <ele>575.01</ele>
        <time>2015-02-19T07:52:16Z</time>
      </trkpt>
      <trkpt lat="43.77907" lon="3.54705">
        <ele>575.01</ele>
        <time>2015-02-19T07:52:28Z</time>
      </trkpt>
      <trkpt lat="43.77904" lon="3.54726">
        <ele>574.53</ele>
        <time>2015-02-19T07:52:40Z</time>
      </trkpt>
      <trkpt lat="43.77903" lon="3.54747">
        <ele>573.56</ele>
        <time>2015-02-19T07:52:52Z</time>
      </trkpt>
      <trkpt lat="43.77904" lon="3.54752">
        <ele>574.04</ele>
        <time>2015-02-19T07:52:56Z</time>
      </trkpt>
      <trkpt lat="43.77912" lon="3.5477">
        <ele>572.12</ele>
        <time>2015-02-19T07:53:07Z</time>
      </trkpt>
      <trkpt lat="43.7792" lon="3.54783">
        <ele>570.68</ele>
        <time>2015-02-19T07:53:17Z</time>
      </trkpt>
      <trkpt lat="43.77929" lon="3.54795">
        <ele>568.28</ele>
        <time>2015-02-19T07:53:28Z</time>
      </trkpt>
      <trkpt lat="43.77932" lon="3.54802">
        <ele>567.32</ele>
        <time>2015-02-19T07:53:33Z</time>
      </trkpt>
      <trkpt lat="43.77942" lon="3.54822">
        <ele>569.24</ele>
        <time>2015-02-19T07:53:46Z</time>
      </trkpt>
      <trkpt lat="43.77949" lon="3.5484">
        <ele>570.68</ele>
        <time>2015-02-19T07:53:58Z</time>
      </trkpt>
      <trkpt lat="43.77955" lon="3.54859">
        <ele>572.12</ele>
        <time>2015-02-19T07:54:10Z</time>
      </trkpt>
      <trkpt lat="43.77961" lon="3.54877">
        <ele>571.16</ele>
        <time>2015-02-19T07:54:21Z</time>
      </trkpt>
      <trkpt lat="43.77969" lon="3.54895">
        <ele>572.12</ele>
        <time>2015-02-19T07:54:33Z</time>
      </trkpt>
      <trkpt lat="43.77978" lon="3.54909">
        <ele>572.12</ele>
        <time>2015-02-19T07:54:43Z</time>
      </trkpt>
      <trkpt lat="43.77986" lon="3.54925">
        <ele>574.04</ele>
        <time>2015-02-19T07:54:54Z</time>
      </trkpt>
      <trkpt lat="43.77995" lon="3.54941">
        <ele>574.53</ele>
        <time>2015-02-19T07:55:07Z</time>
      </trkpt>
      <trkpt lat="43.77998" lon="3.54947">
        <ele>574.53</ele>
        <time>2015-02-19T07:55:12Z</time>
      </trkpt>
      <trkpt lat="43.78" lon="3.54952">
        <ele>575.01</ele>
        <time>2015-02-19T07:55:16Z</time>
      </trkpt>
      <trkpt lat="43.78008" lon="3.54969">
        <ele>576.45</ele>
        <time>2015-02-19T07:55:29Z</time>
      </trkpt>
      <trkpt lat="43.78016" lon="3.54985">
        <ele>577.41</ele>
        <time>2015-02-19T07:55:41Z</time>
      </trkpt>
      <trkpt lat="43.78024" lon="3.54998">
        <ele>578.85</ele>
        <time>2015-02-19T07:55:53Z</time>
      </trkpt>
      <trkpt lat="43.7803" lon="3.55009">
        <ele>579.33</ele>
        <time>2015-02-19T07:56:02Z</time>
      </trkpt>
      <trkpt lat="43.78041" lon="3.55023">
        <ele>579.81</ele>
        <time>2015-02-19T07:56:17Z</time>
      </trkpt>
      <trkpt lat="43.78049" lon="3.55035">
        <ele>580.29</ele>
        <time>2015-02-19T07:56:29Z</time>
      </trkpt>
      <trkpt lat="43.78063" lon="3.55051">
        <ele>580.77</ele>
        <time>2015-02-19T07:56:44Z</time>
      </trkpt>
      <trkpt lat="43.78075" lon="3.55064">
        <ele>581.25</ele>
        <time>2015-02-19T07:56:56Z</time>
      </trkpt>
      <trkpt lat="43.78088" lon="3.55076">
        <ele>582.22</ele>
        <time>2015-02-19T07:57:09Z</time>
      </trkpt>
      <trkpt lat="43.78101" lon="3.55093">
        <ele>582.7</ele>
        <time>2015-02-19T07:57:22Z</time>
      </trkpt>
      <trkpt lat="43.78106" lon="3.55117">
        <ele>581.25</ele>
        <time>2015-02-19T07:57:36Z</time>
      </trkpt>
      <trkpt lat="43.78107" lon="3.55143">
        <ele>581.73</ele>
        <time>2015-02-19T07:57:49Z</time>
      </trkpt>
      <trkpt lat="43.7811" lon="3.55162">
        <ele>581.73</ele>
        <time>2015-02-19T07:58:02Z</time>
      </trkpt>
      <trkpt lat="43.78111" lon="3.55191">
        <ele>581.73</ele>
        <time>2015-02-19T07:58:16Z</time>
      </trkpt>
      <trkpt lat="43.78109" lon="3.5521">
        <ele>581.25</ele>
        <time>2015-02-19T07:58:26Z</time>
      </trkpt>
      <trkpt lat="43.78106" lon="3.55219">
        <ele>581.73</ele>
        <time>2015-02-19T07:58:32Z</time>
      </trkpt>
      <trkpt lat="43.78091" lon="3.55236">
        <ele>579.81</ele>
        <time>2015-02-19T07:58:47Z</time>
      </trkpt>
      <trkpt lat="43.7809" lon="3.55237">
        <ele>579.81</ele>
        <time>2015-02-19T07:58:48Z</time>
      </trkpt>
      <trkpt lat="43.78077" lon="3.5525">
        <ele>576.93</ele>
        <time>2015-02-19T07:59:02Z</time>
      </trkpt>
      <trkpt lat="43.78067" lon="3.55263">
        <ele>575.01</ele>
        <time>2015-02-19T07:59:13Z</time>
      </trkpt>
      <trkpt lat="43.78056" lon="3.5528">
        <ele>574.53</ele>
        <time>2015-02-19T07:59:25Z</time>
      </trkpt>
      <trkpt lat="43.78049" lon="3.55295">
        <ele>575.01</ele>
        <time>2015-02-19T07:59:37Z</time>
      </trkpt>
      <trkpt lat="43.78043" lon="3.55311">
        <ele>575.97</ele>
        <time>2015-02-19T07:59:48Z</time>
      </trkpt>
      <trkpt lat="43.78042" lon="3.55314">
        <ele>575.97</ele>
        <time>2015-02-19T07:59:50Z</time>
      </trkpt>
      <trkpt lat="43.78042" lon="3.55321">
        <ele>576.45</ele>
        <time>2015-02-19T07:59:55Z</time>
      </trkpt>
      <trkpt lat="43.78038" lon="3.55343">
        <ele>576.93</ele>
        <time>2015-02-19T08:00:08Z</time>
      </trkpt>
      <trkpt lat="43.78037" lon="3.5535">
        <ele>577.41</ele>
        <time>2015-02-19T08:00:12Z</time>
      </trkpt>
      <trkpt lat="43.7803" lon="3.5537">
        <ele>577.41</ele>
        <time>2015-02-19T08:00:24Z</time>
      </trkpt>
      <trkpt lat="43.78022" lon="3.55387">
        <ele>577.41</ele>
        <time>2015-02-19T08:00:36Z</time>
      </trkpt>
      <trkpt lat="43.78016" lon="3.55407">
        <ele>577.89</ele>
        <time>2015-02-19T08:00:48Z</time>
      </trkpt>
      <trkpt lat="43.78009" lon="3.55427">
        <ele>577.89</ele>
        <time>2015-02-19T08:01:01Z</time>
      </trkpt>
      <trkpt lat="43.78003" lon="3.55447">
        <ele>577.89</ele>
        <time>2015-02-19T08:01:13Z</time>
      </trkpt>
      <trkpt lat="43.77998" lon="3.55466">
        <ele>578.85</ele>
        <time>2015-02-19T08:01:24Z</time>
      </trkpt>
      <trkpt lat="43.7799" lon="3.55486">
        <ele>578.85</ele>
        <time>2015-02-19T08:01:36Z</time>
      </trkpt>
      <trkpt lat="43.77984" lon="3.55498">
        <ele>579.33</ele>
        <time>2015-02-19T08:01:45Z</time>
      </trkpt>
      <trkpt lat="43.77978" lon="3.55499">
        <ele>580.29</ele>
        <time>2015-02-19T08:01:52Z</time>
      </trkpt>
      <trkpt lat="43.77972" lon="3.55497">
        <ele>580.29</ele>
        <time>2015-02-19T08:02:00Z</time>
      </trkpt>
      <trkpt lat="43.77966" lon="3.55482">
        <ele>579.81</ele>
        <time>2015-02-19T08:02:13Z</time>
      </trkpt>
      <trkpt lat="43.7796" lon="3.55466">
        <ele>581.25</ele>
        <time>2015-02-19T08:02:26Z</time>
      </trkpt>
      <trkpt lat="43.77954" lon="3.55453">
        <ele>581.73</ele>
        <time>2015-02-19T08:02:37Z</time>
      </trkpt>
      <trkpt lat="43.77948" lon="3.55442">
        <ele>584.14</ele>
        <time>2015-02-19T08:02:47Z</time>
      </trkpt>
      <trkpt lat="43.7794" lon="3.55422">
        <ele>586.54</ele>
        <time>2015-02-19T08:03:00Z</time>
      </trkpt>
      <trkpt lat="43.77931" lon="3.55404">
        <ele>588.46</ele>
        <time>2015-02-19T08:03:13Z</time>
      </trkpt>
      <trkpt lat="43.77923" lon="3.55388">
        <ele>588.95</ele>
        <time>2015-02-19T08:03:26Z</time>
      </trkpt>
      <trkpt lat="43.77914" lon="3.55371">
        <ele>589.91</ele>
        <time>2015-02-19T08:03:41Z</time>
      </trkpt>
      <trkpt lat="43.77906" lon="3.55353">
        <ele>590.87</ele>
        <time>2015-02-19T08:03:55Z</time>
      </trkpt>
      <trkpt lat="43.77896" lon="3.55339">
        <ele>592.31</ele>
        <time>2015-02-19T08:04:08Z</time>
      </trkpt>
      <trkpt lat="43.77892" lon="3.55335">
        <ele>592.79</ele>
        <time>2015-02-19T08:04:12Z</time>
      </trkpt>
      <trkpt lat="43.77879" lon="3.55325">
        <ele>594.23</ele>
        <time>2015-02-19T08:04:26Z</time>
      </trkpt>
      <trkpt lat="43.77866" lon="3.55317">
        <ele>594.23</ele>
        <time>2015-02-19T08:04:39Z</time>
      </trkpt>
      <trkpt lat="43.77857" lon="3.55309">
        <ele>594.23</ele>
        <time>2015-02-19T08:04:50Z</time>
      </trkpt>
      <trkpt lat="43.77849" lon="3.55294">
        <ele>593.75</ele>
        <time>2015-02-19T08:05:02Z</time>
      </trkpt>
      <trkpt lat="43.77845" lon="3.55288">
        <ele>594.71</ele>
        <time>2015-02-19T08:05:08Z</time>
      </trkpt>
      <trkpt lat="43.77833" lon="3.5528">
        <ele>595.19</ele>
        <time>2015-02-19T08:05:20Z</time>
      </trkpt>
      <trkpt lat="43.77831" lon="3.55281">
        <ele>595.67</ele>
        <time>2015-02-19T08:05:22Z</time>
      </trkpt>
      <trkpt lat="43.77824" lon="3.55286">
        <ele>596.15</ele>
        <time>2015-02-19T08:05:31Z</time>
      </trkpt>
      <trkpt lat="43.77821" lon="3.55303">
        <ele>597.6</ele>
        <time>2015-02-19T08:05:43Z</time>
      </trkpt>
      <trkpt lat="43.77819" lon="3.55317">
        <ele>598.08</ele>
        <time>2015-02-19T08:05:54Z</time>
      </trkpt>
      <trkpt lat="43.77814" lon="3.55334">
        <ele>597.6</ele>
        <time>2015-02-19T08:06:05Z</time>
      </trkpt>
      <trkpt lat="43.7781" lon="3.55349">
        <ele>598.08</ele>
        <time>2015-02-19T08:06:16Z</time>
      </trkpt>
      <trkpt lat="43.77801" lon="3.55361">
        <ele>599.04</ele>
        <time>2015-02-19T08:06:27Z</time>
      </trkpt>
      <trkpt lat="43.7779" lon="3.55367">
        <ele>598.56</ele>
        <time>2015-02-19T08:06:38Z</time>
      </trkpt>
      <trkpt lat="43.77784" lon="3.5537">
        <ele>598.56</ele>
        <time>2015-02-19T08:06:47Z</time>
      </trkpt>
      <trkpt lat="43.7777" lon="3.55377">
        <ele>599.04</ele>
        <time>2015-02-19T08:06:59Z</time>
      </trkpt>
      <trkpt lat="43.77754" lon="3.55384">
        <ele>599.52</ele>
        <time>2015-02-19T08:07:12Z</time>
      </trkpt>
      <trkpt lat="43.7774" lon="3.55389">
        <ele>599.52</ele>
        <time>2015-02-19T08:07:24Z</time>
      </trkpt>
      <trkpt lat="43.77721" lon="3.55391">
        <ele>598.08</ele>
        <time>2015-02-19T08:07:38Z</time>
      </trkpt>
      <trkpt lat="43.77704" lon="3.55391">
        <ele>597.6</ele>
        <time>2015-02-19T08:07:50Z</time>
      </trkpt>
      <trkpt lat="43.77686" lon="3.55397">
        <ele>599.04</ele>
        <time>2015-02-19T08:08:04Z</time>
      </trkpt>
      <trkpt lat="43.77669" lon="3.55408">
        <ele>599.52</ele>
        <time>2015-02-19T08:08:18Z</time>
      </trkpt>
      <trkpt lat="43.77657" lon="3.55425">
        <ele>600</ele>
        <time>2015-02-19T08:08:30Z</time>
      </trkpt>
      <trkpt lat="43.77646" lon="3.5544">
        <ele>600</ele>
        <time>2015-02-19T08:08:43Z</time>
      </trkpt>
      <trkpt lat="43.77636" lon="3.55457">
        <ele>600</ele>
        <time>2015-02-19T08:08:55Z</time>
      </trkpt>
      <trkpt lat="43.77624" lon="3.55476">
        <ele>600</ele>
        <time>2015-02-19T08:09:07Z</time>
      </trkpt>
      <trkpt lat="43.77616" lon="3.55484">
        <ele>599.04</ele>
        <time>2015-02-19T08:09:15Z</time>
      </trkpt>
      <trkpt lat="43.77615" lon="3.55488">
        <ele>598.56</ele>
        <time>2015-02-19T08:09:19Z</time>
      </trkpt>
      <trkpt lat="43.77603" lon="3.55495">
        <ele>599.04</ele>
        <time>2015-02-19T08:09:31Z</time>
      </trkpt>
      <trkpt lat="43.77592" lon="3.55502">
        <ele>598.56</ele>
        <time>2015-02-19T08:09:40Z</time>
      </trkpt>
      <trkpt lat="43.77578" lon="3.55512">
        <ele>599.52</ele>
        <time>2015-02-19T08:09:54Z</time>
      </trkpt>
      <trkpt lat="43.77572" lon="3.55515">
        <ele>600</ele>
        <time>2015-02-19T08:09:59Z</time>
      </trkpt>
      <trkpt lat="43.77564" lon="3.55522">
        <ele>601.44</ele>
        <time>2015-02-19T08:10:09Z</time>
      </trkpt>
      <trkpt lat="43.77563" lon="3.55528">
        <ele>601.44</ele>
        <time>2015-02-19T08:10:14Z</time>
      </trkpt>
      <trkpt lat="43.77563" lon="3.5553">
        <ele>601.44</ele>
        <time>2015-02-19T08:10:16Z</time>
      </trkpt>
      <trkpt lat="43.77563" lon="3.55533">
        <ele>601.44</ele>
        <time>2015-02-19T08:10:18Z</time>
      </trkpt>
      <trkpt lat="43.77561" lon="3.55542">
        <ele>601.44</ele>
        <time>2015-02-19T08:10:24Z</time>
      </trkpt>
      <trkpt lat="43.77564" lon="3.55564">
        <ele>601.92</ele>
        <time>2015-02-19T08:10:37Z</time>
      </trkpt>
      <trkpt lat="43.77564" lon="3.55575">
        <ele>601.44</ele>
        <time>2015-02-19T08:10:47Z</time>
      </trkpt>
      <trkpt lat="43.77565" lon="3.55575">
        <ele>600.96</ele>
        <time>2015-02-19T08:11:11Z</time>
      </trkpt>
      <trkpt lat="43.77565" lon="3.55575">
        <ele>600.48</ele>
        <time>2015-02-19T08:11:41Z</time>
      </trkpt>
      <trkpt lat="43.77565" lon="3.55575">
        <ele>600</ele>
        <time>2015-02-19T08:12:06Z</time>
      </trkpt>
      <trkpt lat="43.77566" lon="3.55567">
        <ele>600</ele>
        <time>2015-02-19T08:12:21Z</time>
      </trkpt>
      <trkpt lat="43.77566" lon="3.55566">
        <ele>600</ele>
        <time>2015-02-19T08:12:22Z</time>
      </trkpt>
      <trkpt lat="43.77565" lon="3.5556">
        <ele>600.48</ele>
        <time>2015-02-19T08:12:27Z</time>
      </trkpt>
      <trkpt lat="43.7756" lon="3.55544">
        <ele>600</ele>
        <time>2015-02-19T08:12:40Z</time>
      </trkpt>
      <trkpt lat="43.77556" lon="3.55532">
        <ele>600</ele>
        <time>2015-02-19T08:12:51Z</time>
      </trkpt>
      <trkpt lat="43.77547" lon="3.5552">
        <ele>601.44</ele>
        <time>2015-02-19T08:13:03Z</time>
      </trkpt>
      <trkpt lat="43.77543" lon="3.55513">
        <ele>601.92</ele>
        <time>2015-02-19T08:13:10Z</time>
      </trkpt>
      <trkpt lat="43.77533" lon="3.555">
        <ele>601.44</ele>
        <time>2015-02-19T08:13:23Z</time>
      </trkpt>
      <trkpt lat="43.77521" lon="3.55483">
        <ele>599.52</ele>
        <time>2015-02-19T08:13:37Z</time>
      </trkpt>
      <trkpt lat="43.77521" lon="3.55484">
        <ele>598.56</ele>
        <time>2015-02-19T08:13:46Z</time>
      </trkpt>
      <trkpt lat="43.77522" lon="3.55485">
        <ele>598.56</ele>
        <time>2015-02-19T08:13:59Z</time>
      </trkpt>
      <trkpt lat="43.7752" lon="3.55482">
        <ele>598.08</ele>
        <time>2015-02-19T08:14:12Z</time>
      </trkpt>
      <trkpt lat="43.77509" lon="3.55467">
        <ele>598.08</ele>
        <time>2015-02-19T08:14:23Z</time>
      </trkpt>
      <trkpt lat="43.77499" lon="3.55455">
        <ele>597.12</ele>
        <time>2015-02-19T08:14:34Z</time>
      </trkpt>
      <trkpt lat="43.7749" lon="3.55441">
        <ele>598.08</ele>
        <time>2015-02-19T08:14:45Z</time>
      </trkpt>
      <trkpt lat="43.77479" lon="3.55422">
        <ele>599.52</ele>
        <time>2015-02-19T08:14:59Z</time>
      </trkpt>
      <trkpt lat="43.77479" lon="3.55419">
        <ele>599.04</ele>
        <time>2015-02-19T08:15:14Z</time>
      </trkpt>
      <trkpt lat="43.77479" lon="3.55418">
        <ele>599.04</ele>
        <time>2015-02-19T08:15:38Z</time>
      </trkpt>
      <trkpt lat="43.77479" lon="3.55419">
        <ele>598.56</ele>
        <time>2015-02-19T08:15:57Z</time>
      </trkpt>
      <trkpt lat="43.77479" lon="3.55419">
        <ele>597.6</ele>
        <time>2015-02-19T08:16:16Z</time>
      </trkpt>
      <trkpt lat="43.77479" lon="3.55419">
        <ele>597.6</ele>
        <time>2015-02-19T08:16:35Z</time>
      </trkpt>
      <trkpt lat="43.77479" lon="3.5542">
        <ele>597.6</ele>
        <time>2015-02-19T08:17:01Z</time>
      </trkpt>
      <trkpt lat="43.77479" lon="3.5542">
        <ele>597.6</ele>
        <time>2015-02-19T08:17:27Z</time>
      </trkpt>
      <trkpt lat="43.77479" lon="3.55419">
        <ele>597.6</ele>
        <time>2015-02-19T08:17:54Z</time>
      </trkpt>
      <trkpt lat="43.77471" lon="3.55409">
        <ele>598.08</ele>
        <time>2015-02-19T08:18:05Z</time>
      </trkpt>
      <trkpt lat="43.77466" lon="3.55399">
        <ele>599.52</ele>
        <time>2015-02-19T08:18:15Z</time>
      </trkpt>
      <trkpt lat="43.77459" lon="3.55388">
        <ele>601.44</ele>
        <time>2015-02-19T08:18:24Z</time>
      </trkpt>
      <trkpt lat="43.77451" lon="3.55377">
        <ele>602.88</ele>
        <time>2015-02-19T08:18:35Z</time>
      </trkpt>
      <trkpt lat="43.77443" lon="3.55362">
        <ele>604.81</ele>
        <time>2015-02-19T08:18:47Z</time>
      </trkpt>
      <trkpt lat="43.77436" lon="3.55348">
        <ele>607.69</ele>
        <time>2015-02-19T08:18:57Z</time>
      </trkpt>
      <trkpt lat="43.77426" lon="3.55333">
        <ele>609.13</ele>
        <time>2015-02-19T08:19:09Z</time>
      </trkpt>
      <trkpt lat="43.77419" lon="3.55319">
        <ele>608.65</ele>
        <time>2015-02-19T08:19:20Z</time>
      </trkpt>
      <trkpt lat="43.77412" lon="3.55303">
        <ele>607.69</ele>
        <time>2015-02-19T08:19:31Z</time>
      </trkpt>
      <trkpt lat="43.77401" lon="3.55281">
        <ele>606.25</ele>
        <time>2015-02-19T08:19:46Z</time>
      </trkpt>
      <trkpt lat="43.77389" lon="3.55266">
        <ele>606.25</ele>
        <time>2015-02-19T08:19:58Z</time>
      </trkpt>
      <trkpt lat="43.7738" lon="3.55252">
        <ele>606.25</ele>
        <time>2015-02-19T08:20:09Z</time>
      </trkpt>
      <trkpt lat="43.77369" lon="3.55235">
        <ele>605.29</ele>
        <time>2015-02-19T08:20:20Z</time>
      </trkpt>
      <trkpt lat="43.77358" lon="3.55223">
        <ele>605.29</ele>
        <time>2015-02-19T08:20:33Z</time>
      </trkpt>
      <trkpt lat="43.77345" lon="3.55208">
        <ele>602.88</ele>
        <time>2015-02-19T08:20:45Z</time>
      </trkpt>
      <trkpt lat="43.77342" lon="3.55207">
        <ele>602.88</ele>
        <time>2015-02-19T08:20:48Z</time>
      </trkpt>
      <trkpt lat="43.77333" lon="3.55222">
        <ele>600</ele>
        <time>2015-02-19T08:21:00Z</time>
      </trkpt>
      <trkpt lat="43.77326" lon="3.55229">
        <ele>597.6</ele>
        <time>2015-02-19T08:21:07Z</time>
      </trkpt>
      <trkpt lat="43.77317" lon="3.5524">
        <ele>595.19</ele>
        <time>2015-02-19T08:21:19Z</time>
      </trkpt>
      <trkpt lat="43.77304" lon="3.55255">
        <ele>593.27</ele>
        <time>2015-02-19T08:21:32Z</time>
      </trkpt>
      <trkpt lat="43.77294" lon="3.55267">
        <ele>591.35</ele>
        <time>2015-02-19T08:21:44Z</time>
      </trkpt>
      <trkpt lat="43.7728" lon="3.55281">
        <ele>589.43</ele>
        <time>2015-02-19T08:21:56Z</time>
      </trkpt>
      <trkpt lat="43.77267" lon="3.55296">
        <ele>587.98</ele>
        <time>2015-02-19T08:22:11Z</time>
      </trkpt>
      <trkpt lat="43.77254" lon="3.55308">
        <ele>585.1</ele>
        <time>2015-02-19T08:22:21Z</time>
      </trkpt>
      <trkpt lat="43.7724" lon="3.55323">
        <ele>583.66</ele>
        <time>2015-02-19T08:22:35Z</time>
      </trkpt>
      <trkpt lat="43.77226" lon="3.55336">
        <ele>581.73</ele>
        <time>2015-02-19T08:22:47Z</time>
      </trkpt>
      <trkpt lat="43.77215" lon="3.55349">
        <ele>580.29</ele>
        <time>2015-02-19T08:22:59Z</time>
      </trkpt>
      <trkpt lat="43.77198" lon="3.55371">
        <ele>581.25</ele>
        <time>2015-02-19T08:23:17Z</time>
      </trkpt>
      <trkpt lat="43.77181" lon="3.55379">
        <ele>580.29</ele>
        <time>2015-02-19T08:23:29Z</time>
      </trkpt>
      <trkpt lat="43.77167" lon="3.55385">
        <ele>580.77</ele>
        <time>2015-02-19T08:23:41Z</time>
      </trkpt>
      <trkpt lat="43.77166" lon="3.55386">
        <ele>580.77</ele>
        <time>2015-02-19T08:23:42Z</time>
      </trkpt>
      <trkpt lat="43.77162" lon="3.55391">
        <ele>580.29</ele>
        <time>2015-02-19T08:23:46Z</time>
      </trkpt>
      <trkpt lat="43.77159" lon="3.55394">
        <ele>580.77</ele>
        <time>2015-02-19T08:23:56Z</time>
      </trkpt>
      <trkpt lat="43.77157" lon="3.55396">
        <ele>580.77</ele>
        <time>2015-02-19T08:23:59Z</time>
      </trkpt>
      <trkpt lat="43.77144" lon="3.55412">
        <ele>581.25</ele>
        <time>2015-02-19T08:24:11Z</time>
      </trkpt>
      <trkpt lat="43.77132" lon="3.55429">
        <ele>581.25</ele>
        <time>2015-02-19T08:24:26Z</time>
      </trkpt>
      <trkpt lat="43.77122" lon="3.55443">
        <ele>581.73</ele>
        <time>2015-02-19T08:24:37Z</time>
      </trkpt>
      <trkpt lat="43.77109" lon="3.55456">
        <ele>582.22</ele>
        <time>2015-02-19T08:24:49Z</time>
      </trkpt>
      <trkpt lat="43.77101" lon="3.55472">
        <ele>583.18</ele>
        <time>2015-02-19T08:25:01Z</time>
      </trkpt>
      <trkpt lat="43.77092" lon="3.55489">
        <ele>583.66</ele>
        <time>2015-02-19T08:25:14Z</time>
      </trkpt>
      <trkpt lat="43.77081" lon="3.55507">
        <ele>584.14</ele>
        <time>2015-02-19T08:25:27Z</time>
      </trkpt>
      <trkpt lat="43.77069" lon="3.55523">
        <ele>584.14</ele>
        <time>2015-02-19T08:25:40Z</time>
      </trkpt>
      <trkpt lat="43.77065" lon="3.55526">
        <ele>584.14</ele>
        <time>2015-02-19T08:25:45Z</time>
      </trkpt>
      <trkpt lat="43.77052" lon="3.55521">
        <ele>584.62</ele>
        <time>2015-02-19T08:25:57Z</time>
      </trkpt>
      <trkpt lat="43.7705" lon="3.55519">
        <ele>584.62</ele>
        <time>2015-02-19T08:25:59Z</time>
      </trkpt>
      <trkpt lat="43.7704" lon="3.55512">
        <ele>585.1</ele>
        <time>2015-02-19T08:26:12Z</time>
      </trkpt>
      <trkpt lat="43.77031" lon="3.55509">
        <ele>584.14</ele>
        <time>2015-02-19T08:26:24Z</time>
      </trkpt>
      <trkpt lat="43.77022" lon="3.55502">
        <ele>582.7</ele>
        <time>2015-02-19T08:26:37Z</time>
      </trkpt>
      <trkpt lat="43.77013" lon="3.55488">
        <ele>585.1</ele>
        <time>2015-02-19T08:26:52Z</time>
      </trkpt>
      <trkpt lat="43.77002" lon="3.55476">
        <ele>590.87</ele>
        <time>2015-02-19T08:27:05Z</time>
      </trkpt>
      <trkpt lat="43.76991" lon="3.55469">
        <ele>592.79</ele>
        <time>2015-02-19T08:27:15Z</time>
      </trkpt>
      <trkpt lat="43.76987" lon="3.5547">
        <ele>593.75</ele>
        <time>2015-02-19T08:27:19Z</time>
      </trkpt>
      <trkpt lat="43.76974" lon="3.55473">
        <ele>594.71</ele>
        <time>2015-02-19T08:27:31Z</time>
      </trkpt>
      <trkpt lat="43.76961" lon="3.55476">
        <ele>597.12</ele>
        <time>2015-02-19T08:27:43Z</time>
      </trkpt>
      <trkpt lat="43.76953" lon="3.55484">
        <ele>598.56</ele>
        <time>2015-02-19T08:27:55Z</time>
      </trkpt>
      <trkpt lat="43.76951" lon="3.55486">
        <ele>599.52</ele>
        <time>2015-02-19T08:28:00Z</time>
      </trkpt>
      <trkpt lat="43.76946" lon="3.55497">
        <ele>600.48</ele>
        <time>2015-02-19T08:28:11Z</time>
      </trkpt>
      <trkpt lat="43.76942" lon="3.55514">
        <ele>601.92</ele>
        <time>2015-02-19T08:28:23Z</time>
      </trkpt>
      <trkpt lat="43.76943" lon="3.55527">
        <ele>602.4</ele>
        <time>2015-02-19T08:28:33Z</time>
      </trkpt>
      <trkpt lat="43.76944" lon="3.55533">
        <ele>601.92</ele>
        <time>2015-02-19T08:28:38Z</time>
      </trkpt>
      <trkpt lat="43.76947" lon="3.55541">
        <ele>601.44</ele>
        <time>2015-02-19T08:28:44Z</time>
      </trkpt>
      <trkpt lat="43.76945" lon="3.55553">
        <ele>600</ele>
        <time>2015-02-19T08:28:55Z</time>
      </trkpt>
      <trkpt lat="43.76937" lon="3.55569">
        <ele>600.96</ele>
        <time>2015-02-19T08:29:08Z</time>
      </trkpt>
      <trkpt lat="43.7693" lon="3.55576">
        <ele>600.96</ele>
        <time>2015-02-19T08:29:18Z</time>
      </trkpt>
      <trkpt lat="43.76928" lon="3.55576">
        <ele>600.96</ele>
        <time>2015-02-19T08:29:20Z</time>
      </trkpt>
      <trkpt lat="43.76923" lon="3.55576">
        <ele>601.92</ele>
        <time>2015-02-19T08:29:24Z</time>
      </trkpt>
      <trkpt lat="43.76921" lon="3.55575">
        <ele>601.92</ele>
        <time>2015-02-19T08:29:26Z</time>
      </trkpt>
      <trkpt lat="43.76909" lon="3.55565">
        <ele>603.36</ele>
        <time>2015-02-19T08:29:39Z</time>
      </trkpt>
      <trkpt lat="43.76904" lon="3.55553">
        <ele>606.25</ele>
        <time>2015-02-19T08:29:49Z</time>
      </trkpt>
      <trkpt lat="43.76903" lon="3.55546">
        <ele>608.17</ele>
        <time>2015-02-19T08:29:55Z</time>
      </trkpt>
      <trkpt lat="43.769" lon="3.55527">
        <ele>612.98</ele>
        <time>2015-02-19T08:30:07Z</time>
      </trkpt>
      <trkpt lat="43.76898" lon="3.55525">
        <ele>613.46</ele>
        <time>2015-02-19T08:30:09Z</time>
      </trkpt>
      <trkpt lat="43.76893" lon="3.55524">
        <ele>614.42</ele>
        <time>2015-02-19T08:30:14Z</time>
      </trkpt>
      <trkpt lat="43.76891" lon="3.55525">
        <ele>614.42</ele>
        <time>2015-02-19T08:30:16Z</time>
      </trkpt>
      <trkpt lat="43.76889" lon="3.55538">
        <ele>614.42</ele>
        <time>2015-02-19T08:30:27Z</time>
      </trkpt>
      <trkpt lat="43.76892" lon="3.55554">
        <ele>614.42</ele>
        <time>2015-02-19T08:30:39Z</time>
      </trkpt>
      <trkpt lat="43.76891" lon="3.5557">
        <ele>614.9</ele>
        <time>2015-02-19T08:30:51Z</time>
      </trkpt>
      <trkpt lat="43.76894" lon="3.55589">
        <ele>615.38</ele>
        <time>2015-02-19T08:31:07Z</time>
      </trkpt>
      <trkpt lat="43.76902" lon="3.55602">
        <ele>616.34</ele>
        <time>2015-02-19T08:31:21Z</time>
      </trkpt>
      <trkpt lat="43.76908" lon="3.55613">
        <ele>619.23</ele>
        <time>2015-02-19T08:31:33Z</time>
      </trkpt>
      <trkpt lat="43.76909" lon="3.55629">
        <ele>620.67</ele>
        <time>2015-02-19T08:31:47Z</time>
      </trkpt>
      <trkpt lat="43.76915" lon="3.55643">
        <ele>621.63</ele>
        <time>2015-02-19T08:32:01Z</time>
      </trkpt>
      <trkpt lat="43.76929" lon="3.55653">
        <ele>621.63</ele>
        <time>2015-02-19T08:32:17Z</time>
      </trkpt>
      <trkpt lat="43.76929" lon="3.55653">
        <ele>621.63</ele>
        <time>2015-02-19T08:32:18Z</time>
      </trkpt>
      <trkpt lat="43.76934" lon="3.55653">
        <ele>622.59</ele>
        <time>2015-02-19T08:32:22Z</time>
      </trkpt>
      <trkpt lat="43.76928" lon="3.55658">
        <ele>624.51</ele>
        <time>2015-02-19T08:32:33Z</time>
      </trkpt>
      <trkpt lat="43.76921" lon="3.55659">
        <ele>624.99</ele>
        <time>2015-02-19T08:32:42Z</time>
      </trkpt>
      <trkpt lat="43.7691" lon="3.55659">
        <ele>624.99</ele>
        <time>2015-02-19T08:32:54Z</time>
      </trkpt>
      <trkpt lat="43.76902" lon="3.55656">
        <ele>625.47</ele>
        <time>2015-02-19T08:33:04Z</time>
      </trkpt>
      <trkpt lat="43.76896" lon="3.55652">
        <ele>625.47</ele>
        <time>2015-02-19T08:33:12Z</time>
      </trkpt>
      <trkpt lat="43.76884" lon="3.5565">
        <ele>627.88</ele>
        <time>2015-02-19T08:33:25Z</time>
      </trkpt>
      <trkpt lat="43.76879" lon="3.55658">
        <ele>630.76</ele>
        <time>2015-02-19T08:33:36Z</time>
      </trkpt>
      <trkpt lat="43.76878" lon="3.55661">
        <ele>631.24</ele>
        <time>2015-02-19T08:33:38Z</time>
      </trkpt>
      <trkpt lat="43.76881" lon="3.55676">
        <ele>633.65</ele>
        <time>2015-02-19T08:33:49Z</time>
      </trkpt>
      <trkpt lat="43.76887" lon="3.5569">
        <ele>633.17</ele>
        <time>2015-02-19T08:34:02Z</time>
      </trkpt>
      <trkpt lat="43.76889" lon="3.55694">
        <ele>633.65</ele>
        <time>2015-02-19T08:34:06Z</time>
      </trkpt>
      <trkpt lat="43.76893" lon="3.55703">
        <ele>634.61</ele>
        <time>2015-02-19T08:34:12Z</time>
      </trkpt>
      <trkpt lat="43.76896" lon="3.55711">
        <ele>634.61</ele>
        <time>2015-02-19T08:34:19Z</time>
      </trkpt>
      <trkpt lat="43.76897" lon="3.55716">
        <ele>635.09</ele>
        <time>2015-02-19T08:34:23Z</time>
      </trkpt>
      <trkpt lat="43.76898" lon="3.55731">
        <ele>635.09</ele>
        <time>2015-02-19T08:34:34Z</time>
      </trkpt>
      <trkpt lat="43.76899" lon="3.55739">
        <ele>635.09</ele>
        <time>2015-02-19T08:34:46Z</time>
      </trkpt>
      <trkpt lat="43.769" lon="3.55755">
        <ele>637.01</ele>
        <time>2015-02-19T08:34:59Z</time>
      </trkpt>
      <trkpt lat="43.76894" lon="3.55762">
        <ele>638.45</ele>
        <time>2015-02-19T08:35:09Z</time>
      </trkpt>
      <trkpt lat="43.76892" lon="3.5577">
        <ele>638.93</ele>
        <time>2015-02-19T08:35:16Z</time>
      </trkpt>
      <trkpt lat="43.76889" lon="3.55788">
        <ele>639.89</ele>
        <time>2015-02-19T08:35:31Z</time>
      </trkpt>
      <trkpt lat="43.76887" lon="3.55792">
        <ele>640.38</ele>
        <time>2015-02-19T08:35:33Z</time>
      </trkpt>
      <trkpt lat="43.76886" lon="3.55801">
        <ele>641.82</ele>
        <time>2015-02-19T08:35:40Z</time>
      </trkpt>
      <trkpt lat="43.7688" lon="3.55814">
        <ele>638.93</ele>
        <time>2015-02-19T08:35:53Z</time>
      </trkpt>
      <trkpt lat="43.76872" lon="3.55832">
        <ele>637.01</ele>
        <time>2015-02-19T08:36:08Z</time>
      </trkpt>
      <trkpt lat="43.76872" lon="3.55836">
        <ele>639.41</ele>
        <time>2015-02-19T08:36:17Z</time>
      </trkpt>
      <trkpt lat="43.76871" lon="3.55843">
        <ele>642.78</ele>
        <time>2015-02-19T08:36:26Z</time>
      </trkpt>
      <trkpt lat="43.76873" lon="3.55855">
        <ele>643.74</ele>
        <time>2015-02-19T08:36:36Z</time>
      </trkpt>
      <trkpt lat="43.76867" lon="3.55873">
        <ele>645.66</ele>
        <time>2015-02-19T08:36:47Z</time>
      </trkpt>
      <trkpt lat="43.76862" lon="3.55886">
        <ele>645.66</ele>
        <time>2015-02-19T08:36:57Z</time>
      </trkpt>
      <trkpt lat="43.76854" lon="3.55899">
        <ele>643.26</ele>
        <time>2015-02-19T08:37:09Z</time>
      </trkpt>
      <trkpt lat="43.76847" lon="3.55911">
        <ele>642.3</ele>
        <time>2015-02-19T08:37:19Z</time>
      </trkpt>
      <trkpt lat="43.76838" lon="3.55929">
        <ele>639.89</ele>
        <time>2015-02-19T08:37:33Z</time>
      </trkpt>
      <trkpt lat="43.7683" lon="3.55942">
        <ele>637.01</ele>
        <time>2015-02-19T08:37:46Z</time>
      </trkpt>
      <trkpt lat="43.76826" lon="3.55965">
        <ele>637.01</ele>
        <time>2015-02-19T08:38:00Z</time>
      </trkpt>
      <trkpt lat="43.76827" lon="3.55987">
        <ele>639.41</ele>
        <time>2015-02-19T08:38:13Z</time>
      </trkpt>
      <trkpt lat="43.76833" lon="3.56002">
        <ele>640.86</ele>
        <time>2015-02-19T08:38:25Z</time>
      </trkpt>
      <trkpt lat="43.76835" lon="3.56013">
        <ele>643.26</ele>
        <time>2015-02-19T08:38:39Z</time>
      </trkpt>
      <trkpt lat="43.76836" lon="3.56014">
        <ele>643.26</ele>
        <time>2015-02-19T08:39:00Z</time>
      </trkpt>
      <trkpt lat="43.76833" lon="3.56015">
        <ele>642.78</ele>
        <time>2015-02-19T08:39:14Z</time>
      </trkpt>
      <trkpt lat="43.76822" lon="3.56017">
        <ele>641.82</ele>
        <time>2015-02-19T08:39:28Z</time>
      </trkpt>
      <trkpt lat="43.7682" lon="3.5602">
        <ele>643.26</ele>
        <time>2015-02-19T08:39:36Z</time>
      </trkpt>
      <trkpt lat="43.76817" lon="3.56021">
        <ele>646.62</ele>
        <time>2015-02-19T08:39:49Z</time>
      </trkpt>
      <trkpt lat="43.76822" lon="3.56024">
        <ele>649.03</ele>
        <time>2015-02-19T08:40:06Z</time>
      </trkpt>
      <trkpt lat="43.76832" lon="3.56031">
        <ele>650.95</ele>
        <time>2015-02-19T08:40:18Z</time>
      </trkpt>
      <trkpt lat="43.76833" lon="3.56041">
        <ele>652.87</ele>
        <time>2015-02-19T08:40:29Z</time>
      </trkpt>
      <trkpt lat="43.76833" lon="3.5604">
        <ele>652.39</ele>
        <time>2015-02-19T08:40:43Z</time>
      </trkpt>
      <trkpt lat="43.7683" lon="3.5605">
        <ele>651.91</ele>
        <time>2015-02-19T08:40:56Z</time>
      </trkpt>
      <trkpt lat="43.76827" lon="3.56069">
        <ele>651.91</ele>
        <time>2015-02-19T08:41:09Z</time>
      </trkpt>
      <trkpt lat="43.76826" lon="3.56085">
        <ele>652.39</ele>
        <time>2015-02-19T08:41:22Z</time>
      </trkpt>
      <trkpt lat="43.7682" lon="3.56089">
        <ele>652.87</ele>
        <time>2015-02-19T08:41:34Z</time>
      </trkpt>
      <trkpt lat="43.76818" lon="3.56088">
        <ele>653.35</ele>
        <time>2015-02-19T08:41:41Z</time>
      </trkpt>
      <trkpt lat="43.76811" lon="3.56091">
        <ele>655.28</ele>
        <time>2015-02-19T08:41:52Z</time>
      </trkpt>
      <trkpt lat="43.76804" lon="3.56094">
        <ele>656.24</ele>
        <time>2015-02-19T08:42:06Z</time>
      </trkpt>
      <trkpt lat="43.76798" lon="3.56104">
        <ele>656.72</ele>
        <time>2015-02-19T08:42:20Z</time>
      </trkpt>
      <trkpt lat="43.76793" lon="3.56106">
        <ele>658.16</ele>
        <time>2015-02-19T08:42:31Z</time>
      </trkpt>
      <trkpt lat="43.76786" lon="3.56113">
        <ele>659.12</ele>
        <time>2015-02-19T08:42:48Z</time>
      </trkpt>
      <trkpt lat="43.76782" lon="3.56117">
        <ele>663.45</ele>
        <time>2015-02-19T08:43:00Z</time>
      </trkpt>
      <trkpt lat="43.7678" lon="3.5612">
        <ele>663.93</ele>
        <time>2015-02-19T08:43:10Z</time>
      </trkpt>
      <trkpt lat="43.76776" lon="3.56128">
        <ele>665.37</ele>
        <time>2015-02-19T08:43:23Z</time>
      </trkpt>
      <trkpt lat="43.76772" lon="3.56135">
        <ele>666.81</ele>
        <time>2015-02-19T08:43:36Z</time>
      </trkpt>
      <trkpt lat="43.76771" lon="3.56142">
        <ele>667.29</ele>
        <time>2015-02-19T08:43:48Z</time>
      </trkpt>
      <trkpt lat="43.76772" lon="3.56147">
        <ele>667.77</ele>
        <time>2015-02-19T08:44:00Z</time>
      </trkpt>
      <trkpt lat="43.76773" lon="3.56155">
        <ele>668.25</ele>
        <time>2015-02-19T08:44:14Z</time>
      </trkpt>
      <trkpt lat="43.76772" lon="3.56161">
        <ele>670.66</ele>
        <time>2015-02-19T08:44:26Z</time>
      </trkpt>
      <trkpt lat="43.76773" lon="3.56166">
        <ele>671.62</ele>
        <time>2015-02-19T08:44:38Z</time>
      </trkpt>
      <trkpt lat="43.76776" lon="3.56172">
        <ele>672.1</ele>
        <time>2015-02-19T08:44:50Z</time>
      </trkpt>
      <trkpt lat="43.76774" lon="3.56182">
        <ele>674.5</ele>
        <time>2015-02-19T08:45:03Z</time>
      </trkpt>
      <trkpt lat="43.76773" lon="3.56184">
        <ele>675.94</ele>
        <time>2015-02-19T08:45:18Z</time>
      </trkpt>
      <trkpt lat="43.76773" lon="3.5619">
        <ele>677.87</ele>
        <time>2015-02-19T08:45:33Z</time>
      </trkpt>
      <trkpt lat="43.76775" lon="3.56191">
        <ele>680.27</ele>
        <time>2015-02-19T08:45:58Z</time>
      </trkpt>
      <trkpt lat="43.76775" lon="3.56191">
        <ele>680.75</ele>
        <time>2015-02-19T08:46:14Z</time>
      </trkpt>
      <trkpt lat="43.76774" lon="3.56193">
        <ele>679.79</ele>
        <time>2015-02-19T08:46:37Z</time>
      </trkpt>
      <trkpt lat="43.76772" lon="3.56195">
        <ele>682.19</ele>
        <time>2015-02-19T08:46:55Z</time>
      </trkpt>
      <trkpt lat="43.76771" lon="3.56196">
        <ele>683.15</ele>
        <time>2015-02-19T08:47:20Z</time>
      </trkpt>
      <trkpt lat="43.76769" lon="3.562">
        <ele>682.67</ele>
        <time>2015-02-19T08:47:37Z</time>
      </trkpt>
      <trkpt lat="43.76768" lon="3.5621">
        <ele>682.19</ele>
        <time>2015-02-19T08:47:49Z</time>
      </trkpt>
      <trkpt lat="43.76766" lon="3.56218">
        <ele>682.19</ele>
        <time>2015-02-19T08:48:02Z</time>
      </trkpt>
      <trkpt lat="43.76767" lon="3.56228">
        <ele>682.67</ele>
        <time>2015-02-19T08:48:16Z</time>
      </trkpt>
      <trkpt lat="43.76769" lon="3.56235">
        <ele>684.12</ele>
        <time>2015-02-19T08:48:28Z</time>
      </trkpt>
      <trkpt lat="43.76768" lon="3.56244">
        <ele>687</ele>
        <time>2015-02-19T08:48:41Z</time>
      </trkpt>
      <trkpt lat="43.7677" lon="3.56249">
        <ele>688.44</ele>
        <time>2015-02-19T08:48:54Z</time>
      </trkpt>
      <trkpt lat="43.76774" lon="3.56254">
        <ele>688.92</ele>
        <time>2015-02-19T08:49:08Z</time>
      </trkpt>
      <trkpt lat="43.76776" lon="3.5626">
        <ele>690.36</ele>
        <time>2015-02-19T08:49:23Z</time>
      </trkpt>
      <trkpt lat="43.76778" lon="3.56264">
        <ele>693.73</ele>
        <time>2015-02-19T08:49:34Z</time>
      </trkpt>
      <trkpt lat="43.76782" lon="3.5627">
        <ele>694.69</ele>
        <time>2015-02-19T08:49:49Z</time>
      </trkpt>
      <trkpt lat="43.76785" lon="3.56277">
        <ele>694.69</ele>
        <time>2015-02-19T08:50:07Z</time>
      </trkpt>
      <trkpt lat="43.76793" lon="3.56275">
        <ele>699.02</ele>
        <time>2015-02-19T08:50:22Z</time>
      </trkpt>
      <trkpt lat="43.768" lon="3.56275">
        <ele>701.42</ele>
        <time>2015-02-19T08:50:35Z</time>
      </trkpt>
      <trkpt lat="43.76807" lon="3.56274">
        <ele>704.3</ele>
        <time>2015-02-19T08:50:49Z</time>
      </trkpt>
      <trkpt lat="43.7681" lon="3.56279">
        <ele>704.78</ele>
        <time>2015-02-19T08:51:00Z</time>
      </trkpt>
      <trkpt lat="43.7681" lon="3.56278">
        <ele>705.75</ele>
        <time>2015-02-19T08:51:15Z</time>
      </trkpt>
      <trkpt lat="43.76811" lon="3.56278">
        <ele>707.19</ele>
        <time>2015-02-19T08:51:35Z</time>
      </trkpt>
      <trkpt lat="43.76812" lon="3.56279">
        <ele>707.67</ele>
        <time>2015-02-19T08:52:01Z</time>
      </trkpt>
      <trkpt lat="43.76812" lon="3.56279">
        <ele>708.15</ele>
        <time>2015-02-19T08:52:24Z</time>
      </trkpt>
      <trkpt lat="43.76812" lon="3.56279">
        <ele>708.15</ele>
        <time>2015-02-19T08:52:43Z</time>
      </trkpt>
      <trkpt lat="43.76812" lon="3.56279">
        <ele>708.63</ele>
        <time>2015-02-19T08:53:02Z</time>
      </trkpt>
      <trkpt lat="43.76813" lon="3.56279">
        <ele>709.11</ele>
        <time>2015-02-19T08:53:20Z</time>
      </trkpt>
      <trkpt lat="43.76813" lon="3.56279">
        <ele>709.59</ele>
        <time>2015-02-19T08:53:46Z</time>
      </trkpt>
      <trkpt lat="43.76813" lon="3.56279">
        <ele>709.11</ele>
        <time>2015-02-19T08:54:12Z</time>
      </trkpt>
      <trkpt lat="43.76813" lon="3.56278">
        <ele>709.11</ele>
        <time>2015-02-19T08:54:30Z</time>
      </trkpt>
      <trkpt lat="43.76813" lon="3.56278">
        <ele>709.11</ele>
        <time>2015-02-19T08:54:57Z</time>
      </trkpt>
      <trkpt lat="43.76813" lon="3.56278">
        <ele>709.11</ele>
        <time>2015-02-19T08:55:18Z</time>
      </trkpt>
      <trkpt lat="43.76813" lon="3.56278">
        <ele>709.11</ele>
        <time>2015-02-19T08:55:45Z</time>
      </trkpt>
      <trkpt lat="43.76813" lon="3.56279">
        <ele>709.11</ele>
        <time>2015-02-19T08:56:17Z</time>
      </trkpt>
      <trkpt lat="43.76813" lon="3.56279">
        <ele>709.11</ele>
        <time>2015-02-19T08:56:34Z</time>
      </trkpt>
      <trkpt lat="43.76813" lon="3.56279">
        <ele>709.59</ele>
        <time>2015-02-19T08:57:00Z</time>
      </trkpt>
      <trkpt lat="43.76813" lon="3.56279">
        <ele>709.59</ele>
        <time>2015-02-19T08:57:24Z</time>
      </trkpt>
      <trkpt lat="43.76813" lon="3.56279">
        <ele>709.59</ele>
        <time>2015-02-19T08:57:43Z</time>
      </trkpt>
      <trkpt lat="43.76813" lon="3.56279">
        <ele>709.59</ele>
        <time>2015-02-19T08:58:11Z</time>
      </trkpt>
      <trkpt lat="43.76813" lon="3.56279">
        <ele>709.11</ele>
        <time>2015-02-19T08:58:33Z</time>
      </trkpt>
      <trkpt lat="43.76813" lon="3.56279">
        <ele>709.11</ele>
        <time>2015-02-19T08:58:58Z</time>
      </trkpt>
      <trkpt lat="43.76813" lon="3.56279">
        <ele>709.11</ele>
        <time>2015-02-19T08:59:21Z</time>
      </trkpt>
      <trkpt lat="43.76813" lon="3.56279">
        <ele>709.11</ele>
        <time>2015-02-19T08:59:40Z</time>
      </trkpt>
      <trkpt lat="43.76813" lon="3.56279">
        <ele>709.59</ele>
        <time>2015-02-19T08:59:57Z</time>
      </trkpt>
      <trkpt lat="43.76813" lon="3.56279">
        <ele>709.59</ele>
        <time>2015-02-19T09:00:18Z</time>
      </trkpt>
      <trkpt lat="43.76813" lon="3.56279">
        <ele>709.59</ele>
        <time>2015-02-19T09:00:44Z</time>
      </trkpt>
      <trkpt lat="43.76813" lon="3.56279">
        <ele>710.07</ele>
        <time>2015-02-19T09:01:10Z</time>
      </trkpt>
      <trkpt lat="43.76813" lon="3.56279">
        <ele>710.07</ele>
        <time>2015-02-19T09:01:31Z</time>
      </trkpt>
      <trkpt lat="43.76813" lon="3.56281">
        <ele>710.07</ele>
        <time>2015-02-19T09:01:42Z</time>
      </trkpt>
      <trkpt lat="43.76813" lon="3.5628">
        <ele>710.07</ele>
        <time>2015-02-19T09:02:02Z</time>
      </trkpt>
      <trkpt lat="43.76813" lon="3.5628">
        <ele>709.59</ele>
        <time>2015-02-19T09:02:27Z</time>
      </trkpt>
      <trkpt lat="43.76813" lon="3.56279">
        <ele>709.59</ele>
        <time>2015-02-19T09:02:44Z</time>
      </trkpt>
      <trkpt lat="43.76813" lon="3.56279">
        <ele>709.59</ele>
        <time>2015-02-19T09:03:01Z</time>
      </trkpt>
      <trkpt lat="43.76813" lon="3.56279">
        <ele>710.07</ele>
        <time>2015-02-19T09:03:27Z</time>
      </trkpt>
      <trkpt lat="43.76813" lon="3.56279">
        <ele>709.59</ele>
        <time>2015-02-19T09:03:47Z</time>
      </trkpt>
      <trkpt lat="43.76813" lon="3.56279">
        <ele>709.59</ele>
        <time>2015-02-19T09:04:04Z</time>
      </trkpt>
      <trkpt lat="43.76813" lon="3.56279">
        <ele>710.07</ele>
        <time>2015-02-19T09:04:17Z</time>
      </trkpt>
      <trkpt lat="43.76814" lon="3.56279">
        <ele>710.07</ele>
        <time>2015-02-19T09:04:34Z</time>
      </trkpt>
      <trkpt lat="43.76813" lon="3.56278">
        <ele>710.07</ele>
        <time>2015-02-19T09:04:47Z</time>
      </trkpt>
      <trkpt lat="43.76812" lon="3.56279">
        <ele>710.55</ele>
        <time>2015-02-19T09:05:08Z</time>
      </trkpt>
      <trkpt lat="43.76812" lon="3.56279">
        <ele>710.55</ele>
        <time>2015-02-19T09:05:32Z</time>
      </trkpt>
      <trkpt lat="43.76813" lon="3.56279">
        <ele>711.03</ele>
        <time>2015-02-19T09:05:55Z</time>
      </trkpt>
      <trkpt lat="43.7681" lon="3.56277">
        <ele>711.51</ele>
        <time>2015-02-19T09:06:13Z</time>
      </trkpt>
      <trkpt lat="43.76808" lon="3.56278">
        <ele>711.03</ele>
        <time>2015-02-19T09:06:27Z</time>
      </trkpt>
      <trkpt lat="43.76806" lon="3.56279">
        <ele>710.07</ele>
        <time>2015-02-19T09:06:32Z</time>
      </trkpt>
      <trkpt lat="43.76794" lon="3.56275">
        <ele>708.63</ele>
        <time>2015-02-19T09:06:45Z</time>
      </trkpt>
      <trkpt lat="43.7679" lon="3.56279">
        <ele>708.15</ele>
        <time>2015-02-19T09:06:58Z</time>
      </trkpt>
      <trkpt lat="43.76782" lon="3.5627">
        <ele>707.19</ele>
        <time>2015-02-19T09:07:12Z</time>
      </trkpt>
      <trkpt lat="43.76776" lon="3.56258">
        <ele>704.3</ele>
        <time>2015-02-19T09:07:26Z</time>
      </trkpt>
      <trkpt lat="43.76771" lon="3.56252">
        <ele>702.38</ele>
        <time>2015-02-19T09:07:38Z</time>
      </trkpt>
      <trkpt lat="43.76768" lon="3.56247">
        <ele>699.98</ele>
        <time>2015-02-19T09:07:56Z</time>
      </trkpt>
      <trkpt lat="43.76768" lon="3.56233">
        <ele>695.17</ele>
        <time>2015-02-19T09:08:09Z</time>
      </trkpt>
      <trkpt lat="43.76766" lon="3.56223">
        <ele>693.25</ele>
        <time>2015-02-19T09:08:22Z</time>
      </trkpt>
      <trkpt lat="43.76768" lon="3.5621">
        <ele>690.84</ele>
        <time>2015-02-19T09:08:35Z</time>
      </trkpt>
      <trkpt lat="43.76768" lon="3.56208">
        <ele>690.84</ele>
        <time>2015-02-19T09:08:53Z</time>
      </trkpt>
      <trkpt lat="43.76768" lon="3.56206">
        <ele>690.36</ele>
        <time>2015-02-19T09:09:11Z</time>
      </trkpt>
      <trkpt lat="43.76773" lon="3.56187">
        <ele>685.56</ele>
        <time>2015-02-19T09:09:26Z</time>
      </trkpt>
      <trkpt lat="43.76773" lon="3.56169">
        <ele>681.23</ele>
        <time>2015-02-19T09:09:40Z</time>
      </trkpt>
      <trkpt lat="43.76772" lon="3.56159">
        <ele>677.87</ele>
        <time>2015-02-19T09:09:53Z</time>
      </trkpt>
      <trkpt lat="43.76772" lon="3.5615">
        <ele>674.98</ele>
        <time>2015-02-19T09:10:03Z</time>
      </trkpt>
      <trkpt lat="43.76772" lon="3.5615">
        <ele>675.94</ele>
        <time>2015-02-19T09:10:28Z</time>
      </trkpt>
      <trkpt lat="43.76772" lon="3.56148">
        <ele>675.94</ele>
        <time>2015-02-19T09:10:42Z</time>
      </trkpt>
      <trkpt lat="43.76777" lon="3.56131">
        <ele>672.1</ele>
        <time>2015-02-19T09:10:56Z</time>
      </trkpt>
      <trkpt lat="43.76778" lon="3.56124">
        <ele>670.18</ele>
        <time>2015-02-19T09:11:08Z</time>
      </trkpt>
      <trkpt lat="43.76784" lon="3.56116">
        <ele>667.29</ele>
        <time>2015-02-19T09:11:20Z</time>
      </trkpt>
      <trkpt lat="43.76793" lon="3.56108">
        <ele>663.93</ele>
        <time>2015-02-19T09:11:34Z</time>
      </trkpt>
      <trkpt lat="43.76805" lon="3.561">
        <ele>660.56</ele>
        <time>2015-02-19T09:11:49Z</time>
      </trkpt>
      <trkpt lat="43.76816" lon="3.56093">
        <ele>657.2</ele>
        <time>2015-02-19T09:12:04Z</time>
      </trkpt>
      <trkpt lat="43.7683" lon="3.56086">
        <ele>652.39</ele>
        <time>2015-02-19T09:12:20Z</time>
      </trkpt>
      <trkpt lat="43.76829" lon="3.56069">
        <ele>649.03</ele>
        <time>2015-02-19T09:12:33Z</time>
      </trkpt>
      <trkpt lat="43.76832" lon="3.5605">
        <ele>647.1</ele>
        <time>2015-02-19T09:12:48Z</time>
      </trkpt>
      <trkpt lat="43.76832" lon="3.5603">
        <ele>647.59</ele>
        <time>2015-02-19T09:13:02Z</time>
      </trkpt>
      <trkpt lat="43.7684" lon="3.56021">
        <ele>646.62</ele>
        <time>2015-02-19T09:13:15Z</time>
      </trkpt>
      <trkpt lat="43.76839" lon="3.56019">
        <ele>649.03</ele>
        <time>2015-02-19T09:13:27Z</time>
      </trkpt>
      <trkpt lat="43.76847" lon="3.56029">
        <ele>649.51</ele>
        <time>2015-02-19T09:13:41Z</time>
      </trkpt>
      <trkpt lat="43.76859" lon="3.56039">
        <ele>649.03</ele>
        <time>2015-02-19T09:13:55Z</time>
      </trkpt>
      <trkpt lat="43.7686" lon="3.5604">
        <ele>648.55</ele>
        <time>2015-02-19T09:13:56Z</time>
      </trkpt>
      <trkpt lat="43.7687" lon="3.56057">
        <ele>646.62</ele>
        <time>2015-02-19T09:14:10Z</time>
      </trkpt>
      <trkpt lat="43.76875" lon="3.56076">
        <ele>643.26</ele>
        <time>2015-02-19T09:14:24Z</time>
      </trkpt>
      <trkpt lat="43.76873" lon="3.56102">
        <ele>641.34</ele>
        <time>2015-02-19T09:14:41Z</time>
      </trkpt>
      <trkpt lat="43.76878" lon="3.56112">
        <ele>642.3</ele>
        <time>2015-02-19T09:14:48Z</time>
      </trkpt>
      <trkpt lat="43.76894" lon="3.56129">
        <ele>642.78</ele>
        <time>2015-02-19T09:15:04Z</time>
      </trkpt>
      <trkpt lat="43.76907" lon="3.56129">
        <ele>644.22</ele>
        <time>2015-02-19T09:15:14Z</time>
      </trkpt>
      <trkpt lat="43.7692" lon="3.56139">
        <ele>643.26</ele>
        <time>2015-02-19T09:15:28Z</time>
      </trkpt>
      <trkpt lat="43.76924" lon="3.56153">
        <ele>641.34</ele>
        <time>2015-02-19T09:15:38Z</time>
      </trkpt>
      <trkpt lat="43.76923" lon="3.56164">
        <ele>643.74</ele>
        <time>2015-02-19T09:15:46Z</time>
      </trkpt>
      <trkpt lat="43.76922" lon="3.56175">
        <ele>642.78</ele>
        <time>2015-02-19T09:15:55Z</time>
      </trkpt>
      <trkpt lat="43.76923" lon="3.56187">
        <ele>639.89</ele>
        <time>2015-02-19T09:16:03Z</time>
      </trkpt>
      <trkpt lat="43.76923" lon="3.56219">
        <ele>636.53</ele>
        <time>2015-02-19T09:16:21Z</time>
      </trkpt>
      <trkpt lat="43.76922" lon="3.56223">
        <ele>636.53</ele>
        <time>2015-02-19T09:16:23Z</time>
      </trkpt>
      <trkpt lat="43.76913" lon="3.56252">
        <ele>634.13</ele>
        <time>2015-02-19T09:16:40Z</time>
      </trkpt>
      <trkpt lat="43.76917" lon="3.56273">
        <ele>634.13</ele>
        <time>2015-02-19T09:16:54Z</time>
      </trkpt>
      <trkpt lat="43.76918" lon="3.56276">
        <ele>634.13</ele>
        <time>2015-02-19T09:16:56Z</time>
      </trkpt>
      <trkpt lat="43.7693" lon="3.56296">
        <ele>634.13</ele>
        <time>2015-02-19T09:17:12Z</time>
      </trkpt>
      <trkpt lat="43.7694" lon="3.56311">
        <ele>634.61</ele>
        <time>2015-02-19T09:17:26Z</time>
      </trkpt>
      <trkpt lat="43.76948" lon="3.56328">
        <ele>636.05</ele>
        <time>2015-02-19T09:17:41Z</time>
      </trkpt>
      <trkpt lat="43.76961" lon="3.56344">
        <ele>637.49</ele>
        <time>2015-02-19T09:17:55Z</time>
      </trkpt>
      <trkpt lat="43.76974" lon="3.56362">
        <ele>639.41</ele>
        <time>2015-02-19T09:18:09Z</time>
      </trkpt>
      <trkpt lat="43.76983" lon="3.56371">
        <ele>640.86</ele>
        <time>2015-02-19T09:18:20Z</time>
      </trkpt>
      <trkpt lat="43.76983" lon="3.56393">
        <ele>637.01</ele>
        <time>2015-02-19T09:18:36Z</time>
      </trkpt>
      <trkpt lat="43.7699" lon="3.56405">
        <ele>634.13</ele>
        <time>2015-02-19T09:18:49Z</time>
      </trkpt>
      <trkpt lat="43.76989" lon="3.56415">
        <ele>630.28</ele>
        <time>2015-02-19T09:19:03Z</time>
      </trkpt>
      <trkpt lat="43.76989" lon="3.56426">
        <ele>629.8</ele>
        <time>2015-02-19T09:19:10Z</time>
      </trkpt>
      <trkpt lat="43.76999" lon="3.5645">
        <ele>630.28</ele>
        <time>2015-02-19T09:19:26Z</time>
      </trkpt>
      <trkpt lat="43.77009" lon="3.5647">
        <ele>627.88</ele>
        <time>2015-02-19T09:19:42Z</time>
      </trkpt>
      <trkpt lat="43.77014" lon="3.56492">
        <ele>625.96</ele>
        <time>2015-02-19T09:19:56Z</time>
      </trkpt>
      <trkpt lat="43.77021" lon="3.56503">
        <ele>628.36</ele>
        <time>2015-02-19T09:20:04Z</time>
      </trkpt>
      <trkpt lat="43.7703" lon="3.56526">
        <ele>624.51</ele>
        <time>2015-02-19T09:20:18Z</time>
      </trkpt>
      <trkpt lat="43.77037" lon="3.5655">
        <ele>620.67</ele>
        <time>2015-02-19T09:20:32Z</time>
      </trkpt>
      <trkpt lat="43.77047" lon="3.56572">
        <ele>622.11</ele>
        <time>2015-02-19T09:20:46Z</time>
      </trkpt>
      <trkpt lat="43.77054" lon="3.5659">
        <ele>623.07</ele>
        <time>2015-02-19T09:20:59Z</time>
      </trkpt>
      <trkpt lat="43.77062" lon="3.56611">
        <ele>622.11</ele>
        <time>2015-02-19T09:21:14Z</time>
      </trkpt>
      <trkpt lat="43.77069" lon="3.5663">
        <ele>620.67</ele>
        <time>2015-02-19T09:21:28Z</time>
      </trkpt>
      <trkpt lat="43.77076" lon="3.56646">
        <ele>618.26</ele>
        <time>2015-02-19T09:21:40Z</time>
      </trkpt>
      <trkpt lat="43.77082" lon="3.56673">
        <ele>615.86</ele>
        <time>2015-02-19T09:21:54Z</time>
      </trkpt>
      <trkpt lat="43.77086" lon="3.56695">
        <ele>613.46</ele>
        <time>2015-02-19T09:22:09Z</time>
      </trkpt>
      <trkpt lat="43.77094" lon="3.56716">
        <ele>609.61</ele>
        <time>2015-02-19T09:22:24Z</time>
      </trkpt>
      <trkpt lat="43.77111" lon="3.56746">
        <ele>606.25</ele>
        <time>2015-02-19T09:22:42Z</time>
      </trkpt>
      <trkpt lat="43.77112" lon="3.5675">
        <ele>603.36</ele>
        <time>2015-02-19T09:22:58Z</time>
      </trkpt>
      <trkpt lat="43.77111" lon="3.5675">
        <ele>604.33</ele>
        <time>2015-02-19T09:23:25Z</time>
      </trkpt>
      <trkpt lat="43.7711" lon="3.56747">
        <ele>605.77</ele>
        <time>2015-02-19T09:23:37Z</time>
      </trkpt>
      <trkpt lat="43.77107" lon="3.56734">
        <ele>608.65</ele>
        <time>2015-02-19T09:23:48Z</time>
      </trkpt>
      <trkpt lat="43.77102" lon="3.56721">
        <ele>611.54</ele>
        <time>2015-02-19T09:23:58Z</time>
      </trkpt>
      <trkpt lat="43.77098" lon="3.5671">
        <ele>615.38</ele>
        <time>2015-02-19T09:24:09Z</time>
      </trkpt>
      <trkpt lat="43.77095" lon="3.56702">
        <ele>616.82</ele>
        <time>2015-02-19T09:24:15Z</time>
      </trkpt>
      <trkpt lat="43.77091" lon="3.56695">
        <ele>617.78</ele>
        <time>2015-02-19T09:24:26Z</time>
      </trkpt>
      <trkpt lat="43.77087" lon="3.56684">
        <ele>615.86</ele>
        <time>2015-02-19T09:24:37Z</time>
      </trkpt>
      <trkpt lat="43.77082" lon="3.56672">
        <ele>614.9</ele>
        <time>2015-02-19T09:24:48Z</time>
      </trkpt>
      <trkpt lat="43.77082" lon="3.56672">
        <ele>615.38</ele>
        <time>2015-02-19T09:24:59Z</time>
      </trkpt>
      <trkpt lat="43.77082" lon="3.56682">
        <ele>612.5</ele>
        <time>2015-02-19T09:25:07Z</time>
      </trkpt>
      <trkpt lat="43.77085" lon="3.56697">
        <ele>609.13</ele>
        <time>2015-02-19T09:25:19Z</time>
      </trkpt>
      <trkpt lat="43.7709" lon="3.56711">
        <ele>607.69</ele>
        <time>2015-02-19T09:25:31Z</time>
      </trkpt>
      <trkpt lat="43.77098" lon="3.56726">
        <ele>605.77</ele>
        <time>2015-02-19T09:25:43Z</time>
      </trkpt>
      <trkpt lat="43.77104" lon="3.56736">
        <ele>604.81</ele>
        <time>2015-02-19T09:25:54Z</time>
      </trkpt>
      <trkpt lat="43.77106" lon="3.56741">
        <ele>604.33</ele>
        <time>2015-02-19T09:25:58Z</time>
      </trkpt>
      <trkpt lat="43.77122" lon="3.56766">
        <ele>600.48</ele>
        <time>2015-02-19T09:26:14Z</time>
      </trkpt>
      <trkpt lat="43.77129" lon="3.56775">
        <ele>599.04</ele>
        <time>2015-02-19T09:26:25Z</time>
      </trkpt>
      <trkpt lat="43.77136" lon="3.56784">
        <ele>598.08</ele>
        <time>2015-02-19T09:26:38Z</time>
      </trkpt>
      <trkpt lat="43.77154" lon="3.5678">
        <ele>600</ele>
        <time>2015-02-19T09:26:51Z</time>
      </trkpt>
      <trkpt lat="43.77165" lon="3.5677">
        <ele>600</ele>
        <time>2015-02-19T09:27:01Z</time>
      </trkpt>
      <trkpt lat="43.77172" lon="3.56764">
        <ele>599.52</ele>
        <time>2015-02-19T09:27:10Z</time>
      </trkpt>
      <trkpt lat="43.77174" lon="3.56763">
        <ele>600</ele>
        <time>2015-02-19T09:27:12Z</time>
      </trkpt>
      <trkpt lat="43.77189" lon="3.56761">
        <ele>599.04</ele>
        <time>2015-02-19T09:27:25Z</time>
      </trkpt>
      <trkpt lat="43.77198" lon="3.56766">
        <ele>597.12</ele>
        <time>2015-02-19T09:27:37Z</time>
      </trkpt>
      <trkpt lat="43.77211" lon="3.56772">
        <ele>594.71</ele>
        <time>2015-02-19T09:27:50Z</time>
      </trkpt>
      <trkpt lat="43.7722" lon="3.56782">
        <ele>591.83</ele>
        <time>2015-02-19T09:28:03Z</time>
      </trkpt>
      <trkpt lat="43.7723" lon="3.56792">
        <ele>588.95</ele>
        <time>2015-02-19T09:28:15Z</time>
      </trkpt>
      <trkpt lat="43.77237" lon="3.56798">
        <ele>587.98</ele>
        <time>2015-02-19T09:28:27Z</time>
      </trkpt>
      <trkpt lat="43.77244" lon="3.56809">
        <ele>585.1</ele>
        <time>2015-02-19T09:28:37Z</time>
      </trkpt>
      <trkpt lat="43.77256" lon="3.56825">
        <ele>583.66</ele>
        <time>2015-02-19T09:28:52Z</time>
      </trkpt>
      <trkpt lat="43.77266" lon="3.56839">
        <ele>581.73</ele>
        <time>2015-02-19T09:29:07Z</time>
      </trkpt>
      <trkpt lat="43.77278" lon="3.56856">
        <ele>580.29</ele>
        <time>2015-02-19T09:29:22Z</time>
      </trkpt>
      <trkpt lat="43.77287" lon="3.56876">
        <ele>577.41</ele>
        <time>2015-02-19T09:29:36Z</time>
      </trkpt>
      <trkpt lat="43.77293" lon="3.56898">
        <ele>574.53</ele>
        <time>2015-02-19T09:29:52Z</time>
      </trkpt>
      <trkpt lat="43.77295" lon="3.56902">
        <ele>573.56</ele>
        <time>2015-02-19T09:29:56Z</time>
      </trkpt>
      <trkpt lat="43.77306" lon="3.56931">
        <ele>569.72</ele>
        <time>2015-02-19T09:30:12Z</time>
      </trkpt>
      <trkpt lat="43.7731" lon="3.56958">
        <ele>564.43</ele>
        <time>2015-02-19T09:30:27Z</time>
      </trkpt>
      <trkpt lat="43.77316" lon="3.56984">
        <ele>559.14</ele>
        <time>2015-02-19T09:30:42Z</time>
      </trkpt>
      <trkpt lat="43.77321" lon="3.57004">
        <ele>555.78</ele>
        <time>2015-02-19T09:30:57Z</time>
      </trkpt>
      <trkpt lat="43.77329" lon="3.57034">
        <ele>553.38</ele>
        <time>2015-02-19T09:31:14Z</time>
      </trkpt>
      <trkpt lat="43.77341" lon="3.57051">
        <ele>551.45</ele>
        <time>2015-02-19T09:31:27Z</time>
      </trkpt>
      <trkpt lat="43.77354" lon="3.57063">
        <ele>550.49</ele>
        <time>2015-02-19T09:31:41Z</time>
      </trkpt>
      <trkpt lat="43.77369" lon="3.57073">
        <ele>551.45</ele>
        <time>2015-02-19T09:31:51Z</time>
      </trkpt>
      <trkpt lat="43.77381" lon="3.57082">
        <ele>550.01</ele>
        <time>2015-02-19T09:32:02Z</time>
      </trkpt>
      <trkpt lat="43.77397" lon="3.57087">
        <ele>549.53</ele>
        <time>2015-02-19T09:32:12Z</time>
      </trkpt>
      <trkpt lat="43.77403" lon="3.57088">
        <ele>549.05</ele>
        <time>2015-02-19T09:32:16Z</time>
      </trkpt>
      <trkpt lat="43.7741" lon="3.57093">
        <ele>547.61</ele>
        <time>2015-02-19T09:32:24Z</time>
      </trkpt>
      <trkpt lat="43.77423" lon="3.57099">
        <ele>544.24</ele>
        <time>2015-02-19T09:32:38Z</time>
      </trkpt>
      <trkpt lat="43.77436" lon="3.57112">
        <ele>541.84</ele>
        <time>2015-02-19T09:32:49Z</time>
      </trkpt>
      <trkpt lat="43.77451" lon="3.57135">
        <ele>539.44</ele>
        <time>2015-02-19T09:33:05Z</time>
      </trkpt>
      <trkpt lat="43.77465" lon="3.57145">
        <ele>537.99</ele>
        <time>2015-02-19T09:33:17Z</time>
      </trkpt>
      <trkpt lat="43.77469" lon="3.57154">
        <ele>537.03</ele>
        <time>2015-02-19T09:33:30Z</time>
      </trkpt>
      <trkpt lat="43.77468" lon="3.57163">
        <ele>536.07</ele>
        <time>2015-02-19T09:33:39Z</time>
      </trkpt>
      <trkpt lat="43.77468" lon="3.57171">
        <ele>534.63</ele>
        <time>2015-02-19T09:33:50Z</time>
      </trkpt>
      <trkpt lat="43.77469" lon="3.57176">
        <ele>534.15</ele>
        <time>2015-02-19T09:33:53Z</time>
      </trkpt>
      <trkpt lat="43.77473" lon="3.57191">
        <ele>532.71</ele>
        <time>2015-02-19T09:34:04Z</time>
      </trkpt>
      <trkpt lat="43.77474" lon="3.57208">
        <ele>533.19</ele>
        <time>2015-02-19T09:34:15Z</time>
      </trkpt>
      <trkpt lat="43.77474" lon="3.57209">
        <ele>533.19</ele>
        <time>2015-02-19T09:34:16Z</time>
      </trkpt>
      <trkpt lat="43.77477" lon="3.57214">
        <ele>534.63</ele>
        <time>2015-02-19T09:34:29Z</time>
      </trkpt>
      <trkpt lat="43.77478" lon="3.57221">
        <ele>535.59</ele>
        <time>2015-02-19T09:34:42Z</time>
      </trkpt>
      <trkpt lat="43.77478" lon="3.57223">
        <ele>535.59</ele>
        <time>2015-02-19T09:34:44Z</time>
      </trkpt>
      <trkpt lat="43.77479" lon="3.5724">
        <ele>534.15</ele>
        <time>2015-02-19T09:34:57Z</time>
      </trkpt>
      <trkpt lat="43.77478" lon="3.5725">
        <ele>530.3</ele>
        <time>2015-02-19T09:35:06Z</time>
      </trkpt>
      <trkpt lat="43.77477" lon="3.57261">
        <ele>526.46</ele>
        <time>2015-02-19T09:35:17Z</time>
      </trkpt>
      <trkpt lat="43.77477" lon="3.57261">
        <ele>526.46</ele>
        <time>2015-02-19T09:35:18Z</time>
      </trkpt>
      <trkpt lat="43.77477" lon="3.5726">
        <ele>525.98</ele>
        <time>2015-02-19T09:35:20Z</time>
      </trkpt>
      <trkpt lat="43.77476" lon="3.57246">
        <ele>526.94</ele>
        <time>2015-02-19T09:35:29Z</time>
      </trkpt>
      <trkpt lat="43.77478" lon="3.57233">
        <ele>526.94</ele>
        <time>2015-02-19T09:35:40Z</time>
      </trkpt>
      <trkpt lat="43.77479" lon="3.57226">
        <ele>527.42</ele>
        <time>2015-02-19T09:35:46Z</time>
      </trkpt>
      <trkpt lat="43.77474" lon="3.57212">
        <ele>528.86</ele>
        <time>2015-02-19T09:35:53Z</time>
      </trkpt>
      <trkpt lat="43.77477" lon="3.57191">
        <ele>532.23</ele>
        <time>2015-02-19T09:36:05Z</time>
      </trkpt>
      <trkpt lat="43.7747" lon="3.57167">
        <ele>531.75</ele>
        <time>2015-02-19T09:36:21Z</time>
      </trkpt>
      <trkpt lat="43.77467" lon="3.57145">
        <ele>531.27</ele>
        <time>2015-02-19T09:36:34Z</time>
      </trkpt>
      <trkpt lat="43.7746" lon="3.57128">
        <ele>533.67</ele>
        <time>2015-02-19T09:36:47Z</time>
      </trkpt>
      <trkpt lat="43.77457" lon="3.57108">
        <ele>535.59</ele>
        <time>2015-02-19T09:36:58Z</time>
      </trkpt>
      <trkpt lat="43.77455" lon="3.57101">
        <ele>537.03</ele>
        <time>2015-02-19T09:37:06Z</time>
      </trkpt>
      <trkpt lat="43.77455" lon="3.5709">
        <ele>538.48</ele>
        <time>2015-02-19T09:37:11Z</time>
      </trkpt>
      <trkpt lat="43.77453" lon="3.57087">
        <ele>538.48</ele>
        <time>2015-02-19T09:37:13Z</time>
      </trkpt>
      <trkpt lat="43.77448" lon="3.5707">
        <ele>538.48</ele>
        <time>2015-02-19T09:37:24Z</time>
      </trkpt>
      <trkpt lat="43.77446" lon="3.57051">
        <ele>537.51</ele>
        <time>2015-02-19T09:37:34Z</time>
      </trkpt>
      <trkpt lat="43.77447" lon="3.5703">
        <ele>536.07</ele>
        <time>2015-02-19T09:37:45Z</time>
      </trkpt>
      <trkpt lat="43.77448" lon="3.57026">
        <ele>535.59</ele>
        <time>2015-02-19T09:37:57Z</time>
      </trkpt>
      <trkpt lat="43.77448" lon="3.57026">
        <ele>535.59</ele>
        <time>2015-02-19T09:38:12Z</time>
      </trkpt>
      <trkpt lat="43.77453" lon="3.57024">
        <ele>535.11</ele>
        <time>2015-02-19T09:38:27Z</time>
      </trkpt>
      <trkpt lat="43.77461" lon="3.57024">
        <ele>535.11</ele>
        <time>2015-02-19T09:38:36Z</time>
      </trkpt>
      <trkpt lat="43.77472" lon="3.57029">
        <ele>535.11</ele>
        <time>2015-02-19T09:38:48Z</time>
      </trkpt>
      <trkpt lat="43.77483" lon="3.57034">
        <ele>535.11</ele>
        <time>2015-02-19T09:39:04Z</time>
      </trkpt>
      <trkpt lat="43.77497" lon="3.5705">
        <ele>536.55</ele>
        <time>2015-02-19T09:39:19Z</time>
      </trkpt>
      <trkpt lat="43.77504" lon="3.57064">
        <ele>537.99</ele>
        <time>2015-02-19T09:39:31Z</time>
      </trkpt>
      <trkpt lat="43.77519" lon="3.57065">
        <ele>536.55</ele>
        <time>2015-02-19T09:39:40Z</time>
      </trkpt>
      <trkpt lat="43.77527" lon="3.57075">
        <ele>537.03</ele>
        <time>2015-02-19T09:39:50Z</time>
      </trkpt>
      <trkpt lat="43.7754" lon="3.57087">
        <ele>537.51</ele>
        <time>2015-02-19T09:40:03Z</time>
      </trkpt>
      <trkpt lat="43.77557" lon="3.57097">
        <ele>539.44</ele>
        <time>2015-02-19T09:40:18Z</time>
      </trkpt>
      <trkpt lat="43.77564" lon="3.571">
        <ele>538.48</ele>
        <time>2015-02-19T09:40:26Z</time>
      </trkpt>
      <trkpt lat="43.77572" lon="3.57105">
        <ele>533.67</ele>
        <time>2015-02-19T09:40:38Z</time>
      </trkpt>
      <trkpt lat="43.77581" lon="3.57104">
        <ele>528.38</ele>
        <time>2015-02-19T09:40:52Z</time>
      </trkpt>
      <trkpt lat="43.7758" lon="3.57102">
        <ele>527.9</ele>
        <time>2015-02-19T09:40:54Z</time>
      </trkpt>
      <trkpt lat="43.77576" lon="3.57093">
        <ele>526.46</ele>
        <time>2015-02-19T09:41:08Z</time>
      </trkpt>
      <trkpt lat="43.77587" lon="3.57101">
        <ele>523.58</ele>
        <time>2015-02-19T09:41:21Z</time>
      </trkpt>
      <trkpt lat="43.77599" lon="3.57112">
        <ele>521.65</ele>
        <time>2015-02-19T09:41:33Z</time>
      </trkpt>
      <trkpt lat="43.77611" lon="3.57114">
        <ele>519.73</ele>
        <time>2015-02-19T09:41:46Z</time>
      </trkpt>
      <trkpt lat="43.77624" lon="3.57121">
        <ele>516.85</ele>
        <time>2015-02-19T09:42:00Z</time>
      </trkpt>
      <trkpt lat="43.77633" lon="3.57124">
        <ele>516.37</ele>
        <time>2015-02-19T09:42:14Z</time>
      </trkpt>
      <trkpt lat="43.77651" lon="3.57129">
        <ele>513.96</ele>
        <time>2015-02-19T09:42:28Z</time>
      </trkpt>
      <trkpt lat="43.7766" lon="3.57135">
        <ele>513.48</ele>
        <time>2015-02-19T09:42:41Z</time>
      </trkpt>
      <trkpt lat="43.7767" lon="3.57144">
        <ele>514.44</ele>
        <time>2015-02-19T09:42:50Z</time>
      </trkpt>
      <trkpt lat="43.77679" lon="3.57153">
        <ele>513</ele>
        <time>2015-02-19T09:43:02Z</time>
      </trkpt>
      <trkpt lat="43.77683" lon="3.57164">
        <ele>509.64</ele>
        <time>2015-02-19T09:43:17Z</time>
      </trkpt>
      <trkpt lat="43.77694" lon="3.5718">
        <ele>507.71</ele>
        <time>2015-02-19T09:43:33Z</time>
      </trkpt>
      <trkpt lat="43.77702" lon="3.57188">
        <ele>505.79</ele>
        <time>2015-02-19T09:43:47Z</time>
      </trkpt>
      <trkpt lat="43.77703" lon="3.57186">
        <ele>506.75</ele>
        <time>2015-02-19T09:44:08Z</time>
      </trkpt>
      <trkpt lat="43.77703" lon="3.57186">
        <ele>506.75</ele>
        <time>2015-02-19T09:44:27Z</time>
      </trkpt>
      <trkpt lat="43.77712" lon="3.57194">
        <ele>504.35</ele>
        <time>2015-02-19T09:44:36Z</time>
      </trkpt>
      <trkpt lat="43.77723" lon="3.57196">
        <ele>499.06</ele>
        <time>2015-02-19T09:44:49Z</time>
      </trkpt>
      <trkpt lat="43.77737" lon="3.57194">
        <ele>495.7</ele>
        <time>2015-02-19T09:45:03Z</time>
      </trkpt>
      <trkpt lat="43.77741" lon="3.57191">
        <ele>496.18</ele>
        <time>2015-02-19T09:45:07Z</time>
      </trkpt>
      <trkpt lat="43.77753" lon="3.57187">
        <ele>495.22</ele>
        <time>2015-02-19T09:45:18Z</time>
      </trkpt>
      <trkpt lat="43.77766" lon="3.57182">
        <ele>494.74</ele>
        <time>2015-02-19T09:45:27Z</time>
      </trkpt>
      <trkpt lat="43.77784" lon="3.57178">
        <ele>494.74</ele>
        <time>2015-02-19T09:45:41Z</time>
      </trkpt>
      <trkpt lat="43.77801" lon="3.57178">
        <ele>496.18</ele>
        <time>2015-02-19T09:45:54Z</time>
      </trkpt>
      <trkpt lat="43.77814" lon="3.57177">
        <ele>499.06</ele>
        <time>2015-02-19T09:46:06Z</time>
      </trkpt>
      <trkpt lat="43.77828" lon="3.57176">
        <ele>498.58</ele>
        <time>2015-02-19T09:46:18Z</time>
      </trkpt>
      <trkpt lat="43.77833" lon="3.57176">
        <ele>497.62</ele>
        <time>2015-02-19T09:46:23Z</time>
      </trkpt>
      <trkpt lat="43.77836" lon="3.57174">
        <ele>496.18</ele>
        <time>2015-02-19T09:46:26Z</time>
      </trkpt>
      <trkpt lat="43.77838" lon="3.57169">
        <ele>495.7</ele>
        <time>2015-02-19T09:46:29Z</time>
      </trkpt>
      <trkpt lat="43.77839" lon="3.57163">
        <ele>496.66</ele>
        <time>2015-02-19T09:46:33Z</time>
      </trkpt>
      <trkpt lat="43.7784" lon="3.57144">
        <ele>495.7</ele>
        <time>2015-02-19T09:46:46Z</time>
      </trkpt>
      <trkpt lat="43.77842" lon="3.57148">
        <ele>494.26</ele>
        <time>2015-02-19T09:46:55Z</time>
      </trkpt>
      <trkpt lat="43.77854" lon="3.57165">
        <ele>491.85</ele>
        <time>2015-02-19T09:47:08Z</time>
      </trkpt>
      <trkpt lat="43.77865" lon="3.57175">
        <ele>487.53</ele>
        <time>2015-02-19T09:47:20Z</time>
      </trkpt>
      <trkpt lat="43.7787" lon="3.57181">
        <ele>484.16</ele>
        <time>2015-02-19T09:47:27Z</time>
      </trkpt>
      <trkpt lat="43.77885" lon="3.57193">
        <ele>479.35</ele>
        <time>2015-02-19T09:47:40Z</time>
      </trkpt>
      <trkpt lat="43.77899" lon="3.57202">
        <ele>475.51</ele>
        <time>2015-02-19T09:47:53Z</time>
      </trkpt>
      <trkpt lat="43.77902" lon="3.57208">
        <ele>472.63</ele>
        <time>2015-02-19T09:48:04Z</time>
      </trkpt>
      <trkpt lat="43.77904" lon="3.57199">
        <ele>470.7</ele>
        <time>2015-02-19T09:48:17Z</time>
      </trkpt>
      <trkpt lat="43.77912" lon="3.5721">
        <ele>469.26</ele>
        <time>2015-02-19T09:48:30Z</time>
      </trkpt>
      <trkpt lat="43.77922" lon="3.57215">
        <ele>466.86</ele>
        <time>2015-02-19T09:48:44Z</time>
      </trkpt>
      <trkpt lat="43.77935" lon="3.57216">
        <ele>465.9</ele>
        <time>2015-02-19T09:48:57Z</time>
      </trkpt>
      <trkpt lat="43.77948" lon="3.57211">
        <ele>464.45</ele>
        <time>2015-02-19T09:49:11Z</time>
      </trkpt>
      <trkpt lat="43.77954" lon="3.5721">
        <ele>463.49</ele>
        <time>2015-02-19T09:49:15Z</time>
      </trkpt>
      <trkpt lat="43.77963" lon="3.57208">
        <ele>464.45</ele>
        <time>2015-02-19T09:49:23Z</time>
      </trkpt>
      <trkpt lat="43.77978" lon="3.57212">
        <ele>463.01</ele>
        <time>2015-02-19T09:49:35Z</time>
      </trkpt>
      <trkpt lat="43.77991" lon="3.57216">
        <ele>462.05</ele>
        <time>2015-02-19T09:49:47Z</time>
      </trkpt>
      <trkpt lat="43.77994" lon="3.57211">
        <ele>463.01</ele>
        <time>2015-02-19T09:49:55Z</time>
      </trkpt>
      <trkpt lat="43.78008" lon="3.57215">
        <ele>464.45</ele>
        <time>2015-02-19T09:50:08Z</time>
      </trkpt>
      <trkpt lat="43.78016" lon="3.57203">
        <ele>465.42</ele>
        <time>2015-02-19T09:50:23Z</time>
      </trkpt>
      <trkpt lat="43.7802" lon="3.572">
        <ele>466.38</ele>
        <time>2015-02-19T09:50:37Z</time>
      </trkpt>
      <trkpt lat="43.7802" lon="3.572">
        <ele>466.86</ele>
        <time>2015-02-19T09:50:55Z</time>
      </trkpt>
      <trkpt lat="43.7802" lon="3.57199">
        <ele>466.38</ele>
        <time>2015-02-19T09:51:16Z</time>
      </trkpt>
      <trkpt lat="43.7802" lon="3.57199">
        <ele>466.86</ele>
        <time>2015-02-19T09:51:34Z</time>
      </trkpt>
      <trkpt lat="43.7802" lon="3.57199">
        <ele>466.86</ele>
        <time>2015-02-19T09:51:56Z</time>
      </trkpt>
      <trkpt lat="43.78019" lon="3.57199">
        <ele>468.78</ele>
        <time>2015-02-19T09:52:14Z</time>
      </trkpt>
      <trkpt lat="43.7802" lon="3.57199">
        <ele>469.26</ele>
        <time>2015-02-19T09:52:34Z</time>
      </trkpt>
      <trkpt lat="43.78023" lon="3.57194">
        <ele>469.74</ele>
        <time>2015-02-19T09:52:53Z</time>
      </trkpt>
      <trkpt lat="43.78035" lon="3.57198">
        <ele>470.7</ele>
        <time>2015-02-19T09:53:07Z</time>
      </trkpt>
      <trkpt lat="43.78041" lon="3.57203">
        <ele>471.66</ele>
        <time>2015-02-19T09:53:19Z</time>
      </trkpt>
      <trkpt lat="43.78056" lon="3.57213">
        <ele>472.63</ele>
        <time>2015-02-19T09:53:32Z</time>
      </trkpt>
      <trkpt lat="43.78067" lon="3.57213">
        <ele>473.59</ele>
        <time>2015-02-19T09:53:46Z</time>
      </trkpt>
      <trkpt lat="43.7807" lon="3.57212">
        <ele>474.55</ele>
        <time>2015-02-19T09:53:58Z</time>
      </trkpt>
      <trkpt lat="43.78076" lon="3.57212">
        <ele>474.55</ele>
        <time>2015-02-19T09:54:13Z</time>
      </trkpt>
      <trkpt lat="43.78083" lon="3.57213">
        <ele>474.07</ele>
        <time>2015-02-19T09:54:29Z</time>
      </trkpt>
      <trkpt lat="43.78095" lon="3.57218">
        <ele>477.91</ele>
        <time>2015-02-19T09:54:42Z</time>
      </trkpt>
      <trkpt lat="43.78098" lon="3.57219">
        <ele>478.87</ele>
        <time>2015-02-19T09:54:56Z</time>
      </trkpt>
      <trkpt lat="43.78099" lon="3.57219">
        <ele>479.35</ele>
        <time>2015-02-19T09:55:10Z</time>
      </trkpt>
      <trkpt lat="43.781" lon="3.57216">
        <ele>480.32</ele>
        <time>2015-02-19T09:55:25Z</time>
      </trkpt>
      <trkpt lat="43.78103" lon="3.57214">
        <ele>481.76</ele>
        <time>2015-02-19T09:55:38Z</time>
      </trkpt>
      <trkpt lat="43.78103" lon="3.57212">
        <ele>484.16</ele>
        <time>2015-02-19T09:55:47Z</time>
      </trkpt>
      <trkpt lat="43.78106" lon="3.5721">
        <ele>484.16</ele>
        <time>2015-02-19T09:56:02Z</time>
      </trkpt>
      <trkpt lat="43.78113" lon="3.57213">
        <ele>486.56</ele>
        <time>2015-02-19T09:56:16Z</time>
      </trkpt>
      <trkpt lat="43.78124" lon="3.57218">
        <ele>489.45</ele>
        <time>2015-02-19T09:56:28Z</time>
      </trkpt>
      <trkpt lat="43.7813" lon="3.57216">
        <ele>491.85</ele>
        <time>2015-02-19T09:56:39Z</time>
      </trkpt>
      <trkpt lat="43.78139" lon="3.57214">
        <ele>495.22</ele>
        <time>2015-02-19T09:56:55Z</time>
      </trkpt>
      <trkpt lat="43.7814" lon="3.57218">
        <ele>497.62</ele>
        <time>2015-02-19T09:57:09Z</time>
      </trkpt>
      <trkpt lat="43.78139" lon="3.57216">
        <ele>499.06</ele>
        <time>2015-02-19T09:57:20Z</time>
      </trkpt>
      <trkpt lat="43.78141" lon="3.57213">
        <ele>499.06</ele>
        <time>2015-02-19T09:57:30Z</time>
      </trkpt>
      <trkpt lat="43.78144" lon="3.57214">
        <ele>500.5</ele>
        <time>2015-02-19T09:57:44Z</time>
      </trkpt>
      <trkpt lat="43.78148" lon="3.57214">
        <ele>500.98</ele>
        <time>2015-02-19T09:58:00Z</time>
      </trkpt>
      <trkpt lat="43.7815" lon="3.57214">
        <ele>501.46</ele>
        <time>2015-02-19T09:58:09Z</time>
      </trkpt>
      <trkpt lat="43.78152" lon="3.57215">
        <ele>502.43</ele>
        <time>2015-02-19T09:58:22Z</time>
      </trkpt>
      <trkpt lat="43.78154" lon="3.57215">
        <ele>502.91</ele>
        <time>2015-02-19T09:58:36Z</time>
      </trkpt>
      <trkpt lat="43.78161" lon="3.57215">
        <ele>502.91</ele>
        <time>2015-02-19T09:58:49Z</time>
      </trkpt>
      <trkpt lat="43.7816" lon="3.57216">
        <ele>505.79</ele>
        <time>2015-02-19T09:59:00Z</time>
      </trkpt>
      <trkpt lat="43.78162" lon="3.57213">
        <ele>507.23</ele>
        <time>2015-02-19T09:59:12Z</time>
      </trkpt>
      <trkpt lat="43.78163" lon="3.57212">
        <ele>507.71</ele>
        <time>2015-02-19T09:59:15Z</time>
      </trkpt>
      <trkpt lat="43.78166" lon="3.57212">
        <ele>507.71</ele>
        <time>2015-02-19T09:59:23Z</time>
      </trkpt>
      <trkpt lat="43.78173" lon="3.572">
        <ele>508.67</ele>
        <time>2015-02-19T09:59:34Z</time>
      </trkpt>
      <trkpt lat="43.78185" lon="3.57192">
        <ele>508.67</ele>
        <time>2015-02-19T09:59:48Z</time>
      </trkpt>
      <trkpt lat="43.78191" lon="3.57183">
        <ele>507.23</ele>
        <time>2015-02-19T10:00:01Z</time>
      </trkpt>
      <trkpt lat="43.78196" lon="3.57179">
        <ele>505.31</ele>
        <time>2015-02-19T10:00:11Z</time>
      </trkpt>
      <trkpt lat="43.78199" lon="3.57178">
        <ele>504.83</ele>
        <time>2015-02-19T10:00:22Z</time>
      </trkpt>
      <trkpt lat="43.78207" lon="3.5718">
        <ele>503.87</ele>
        <time>2015-02-19T10:00:32Z</time>
      </trkpt>
      <trkpt lat="43.78213" lon="3.57179">
        <ele>502.43</ele>
        <time>2015-02-19T10:00:41Z</time>
      </trkpt>
      <trkpt lat="43.78223" lon="3.57177">
        <ele>501.46</ele>
        <time>2015-02-19T10:00:49Z</time>
      </trkpt>
      <trkpt lat="43.78227" lon="3.57178">
        <ele>500.5</ele>
        <time>2015-02-19T10:01:03Z</time>
      </trkpt>
      <trkpt lat="43.78238" lon="3.57175">
        <ele>499.54</ele>
        <time>2015-02-19T10:01:16Z</time>
      </trkpt>
      <trkpt lat="43.78246" lon="3.57176">
        <ele>497.62</ele>
        <time>2015-02-19T10:01:24Z</time>
      </trkpt>
      <trkpt lat="43.78257" lon="3.57177">
        <ele>496.66</ele>
        <time>2015-02-19T10:01:35Z</time>
      </trkpt>
      <trkpt lat="43.78269" lon="3.57178">
        <ele>497.62</ele>
        <time>2015-02-19T10:01:44Z</time>
      </trkpt>
      <trkpt lat="43.7828" lon="3.57179">
        <ele>496.66</ele>
        <time>2015-02-19T10:01:54Z</time>
      </trkpt>
      <trkpt lat="43.78281" lon="3.57179">
        <ele>496.66</ele>
        <time>2015-02-19T10:01:55Z</time>
      </trkpt>
      <trkpt lat="43.78296" lon="3.57182">
        <ele>496.18</ele>
        <time>2015-02-19T10:02:08Z</time>
      </trkpt>
      <trkpt lat="43.78306" lon="3.57188">
        <ele>496.18</ele>
        <time>2015-02-19T10:02:18Z</time>
      </trkpt>
      <trkpt lat="43.78315" lon="3.5719">
        <ele>496.66</ele>
        <time>2015-02-19T10:02:23Z</time>
      </trkpt>
      <trkpt lat="43.78328" lon="3.57193">
        <ele>497.62</ele>
        <time>2015-02-19T10:02:35Z</time>
      </trkpt>
      <trkpt lat="43.7834" lon="3.57195">
        <ele>498.58</ele>
        <time>2015-02-19T10:02:47Z</time>
      </trkpt>
      <trkpt lat="43.78347" lon="3.57194">
        <ele>498.58</ele>
        <time>2015-02-19T10:02:59Z</time>
      </trkpt>
      <trkpt lat="43.78355" lon="3.572">
        <ele>498.1</ele>
        <time>2015-02-19T10:03:10Z</time>
      </trkpt>
      <trkpt lat="43.78356" lon="3.57202">
        <ele>498.1</ele>
        <time>2015-02-19T10:03:24Z</time>
      </trkpt>
      <trkpt lat="43.78356" lon="3.57203">
        <ele>498.1</ele>
        <time>2015-02-19T10:03:25Z</time>
      </trkpt>
      <trkpt lat="43.7836" lon="3.57209">
        <ele>497.62</ele>
        <time>2015-02-19T10:03:37Z</time>
      </trkpt>
      <trkpt lat="43.78365" lon="3.57214">
        <ele>497.62</ele>
        <time>2015-02-19T10:03:49Z</time>
      </trkpt>
      <trkpt lat="43.78369" lon="3.57215">
        <ele>497.14</ele>
        <time>2015-02-19T10:03:53Z</time>
      </trkpt>
      <trkpt lat="43.78383" lon="3.57226">
        <ele>497.62</ele>
        <time>2015-02-19T10:04:05Z</time>
      </trkpt>
      <trkpt lat="43.78396" lon="3.57236">
        <ele>497.62</ele>
        <time>2015-02-19T10:04:17Z</time>
      </trkpt>
      <trkpt lat="43.78407" lon="3.57233">
        <ele>497.62</ele>
        <time>2015-02-19T10:04:25Z</time>
      </trkpt>
      <trkpt lat="43.78411" lon="3.5723">
        <ele>497.62</ele>
        <time>2015-02-19T10:04:28Z</time>
      </trkpt>
      <trkpt lat="43.78419" lon="3.57226">
        <ele>498.58</ele>
        <time>2015-02-19T10:04:38Z</time>
      </trkpt>
      <trkpt lat="43.7842" lon="3.57225">
        <ele>498.58</ele>
        <time>2015-02-19T10:04:53Z</time>
      </trkpt>
      <trkpt lat="43.78426" lon="3.57226">
        <ele>499.54</ele>
        <time>2015-02-19T10:05:12Z</time>
      </trkpt>
      <trkpt lat="43.7844" lon="3.57225">
        <ele>501.95</ele>
        <time>2015-02-19T10:05:25Z</time>
      </trkpt>
      <trkpt lat="43.78446" lon="3.57223">
        <ele>503.39</ele>
        <time>2015-02-19T10:05:35Z</time>
      </trkpt>
      <trkpt lat="43.78447" lon="3.57222">
        <ele>503.87</ele>
        <time>2015-02-19T10:05:49Z</time>
      </trkpt>
      <trkpt lat="43.78447" lon="3.5722">
        <ele>503.87</ele>
        <time>2015-02-19T10:06:03Z</time>
      </trkpt>
      <trkpt lat="43.78446" lon="3.57217">
        <ele>503.87</ele>
        <time>2015-02-19T10:06:06Z</time>
      </trkpt>
      <trkpt lat="43.78438" lon="3.57209">
        <ele>503.87</ele>
        <time>2015-02-19T10:06:17Z</time>
      </trkpt>
      <trkpt lat="43.78432" lon="3.572">
        <ele>505.31</ele>
        <time>2015-02-19T10:06:27Z</time>
      </trkpt>
      <trkpt lat="43.78424" lon="3.57189">
        <ele>507.23</ele>
        <time>2015-02-19T10:06:39Z</time>
      </trkpt>
      <trkpt lat="43.78414" lon="3.57179">
        <ele>507.23</ele>
        <time>2015-02-19T10:06:49Z</time>
      </trkpt>
      <trkpt lat="43.78412" lon="3.57176">
        <ele>506.75</ele>
        <time>2015-02-19T10:06:52Z</time>
      </trkpt>
      <trkpt lat="43.78399" lon="3.57163">
        <ele>506.75</ele>
        <time>2015-02-19T10:07:05Z</time>
      </trkpt>
      <trkpt lat="43.78391" lon="3.57157">
        <ele>506.27</ele>
        <time>2015-02-19T10:07:13Z</time>
      </trkpt>
      <trkpt lat="43.78378" lon="3.57146">
        <ele>505.31</ele>
        <time>2015-02-19T10:07:26Z</time>
      </trkpt>
      <trkpt lat="43.78364" lon="3.57136">
        <ele>505.31</ele>
        <time>2015-02-19T10:07:38Z</time>
      </trkpt>
      <trkpt lat="43.78351" lon="3.57125">
        <ele>504.35</ele>
        <time>2015-02-19T10:07:52Z</time>
      </trkpt>
      <trkpt lat="43.78348" lon="3.57118">
        <ele>504.35</ele>
        <time>2015-02-19T10:08:00Z</time>
      </trkpt>
      <trkpt lat="43.78346" lon="3.57113">
        <ele>505.79</ele>
        <time>2015-02-19T10:08:04Z</time>
      </trkpt>
      <trkpt lat="43.78346" lon="3.57096">
        <ele>507.71</ele>
        <time>2015-02-19T10:08:19Z</time>
      </trkpt>
      <trkpt lat="43.78346" lon="3.57095">
        <ele>507.71</ele>
        <time>2015-02-19T10:08:20Z</time>
      </trkpt>
      <trkpt lat="43.78356" lon="3.57085">
        <ele>508.67</ele>
        <time>2015-02-19T10:08:31Z</time>
      </trkpt>
      <trkpt lat="43.78357" lon="3.57078">
        <ele>508.67</ele>
        <time>2015-02-19T10:08:38Z</time>
      </trkpt>
      <trkpt lat="43.78347" lon="3.57066">
        <ele>510.6</ele>
        <time>2015-02-19T10:08:49Z</time>
      </trkpt>
      <trkpt lat="43.78346" lon="3.57063">
        <ele>511.08</ele>
        <time>2015-02-19T10:08:53Z</time>
      </trkpt>
      <trkpt lat="43.7834" lon="3.5706">
        <ele>512.04</ele>
        <time>2015-02-19T10:09:03Z</time>
      </trkpt>
      <trkpt lat="43.78338" lon="3.57057">
        <ele>512.52</ele>
        <time>2015-02-19T10:09:12Z</time>
      </trkpt>
      <trkpt lat="43.78337" lon="3.57054">
        <ele>512.52</ele>
        <time>2015-02-19T10:09:20Z</time>
      </trkpt>
      <trkpt lat="43.78336" lon="3.57047">
        <ele>513</ele>
        <time>2015-02-19T10:09:31Z</time>
      </trkpt>
      <trkpt lat="43.78341" lon="3.57037">
        <ele>513.48</ele>
        <time>2015-02-19T10:09:42Z</time>
      </trkpt>
      <trkpt lat="43.78349" lon="3.57026">
        <ele>513.96</ele>
        <time>2015-02-19T10:09:55Z</time>
      </trkpt>
      <trkpt lat="43.78355" lon="3.57015">
        <ele>514.44</ele>
        <time>2015-02-19T10:10:10Z</time>
      </trkpt>
      <trkpt lat="43.78359" lon="3.57009">
        <ele>515.4</ele>
        <time>2015-02-19T10:10:24Z</time>
      </trkpt>
      <trkpt lat="43.78356" lon="3.57001">
        <ele>517.33</ele>
        <time>2015-02-19T10:10:37Z</time>
      </trkpt>
      <trkpt lat="43.78354" lon="3.56996">
        <ele>518.77</ele>
        <time>2015-02-19T10:10:42Z</time>
      </trkpt>
      <trkpt lat="43.7835" lon="3.56984">
        <ele>522.13</ele>
        <time>2015-02-19T10:10:52Z</time>
      </trkpt>
      <trkpt lat="43.78346" lon="3.56976">
        <ele>523.58</ele>
        <time>2015-02-19T10:11:01Z</time>
      </trkpt>
      <trkpt lat="43.78336" lon="3.56972">
        <ele>524.06</ele>
        <time>2015-02-19T10:11:13Z</time>
      </trkpt>
      <trkpt lat="43.78329" lon="3.56975">
        <ele>525.5</ele>
        <time>2015-02-19T10:11:21Z</time>
      </trkpt>
      <trkpt lat="43.78318" lon="3.56978">
        <ele>524.54</ele>
        <time>2015-02-19T10:11:30Z</time>
      </trkpt>
      <trkpt lat="43.78303" lon="3.56976">
        <ele>526.46</ele>
        <time>2015-02-19T10:11:41Z</time>
      </trkpt>
      <trkpt lat="43.78297" lon="3.56971">
        <ele>527.42</ele>
        <time>2015-02-19T10:11:48Z</time>
      </trkpt>
      <trkpt lat="43.78288" lon="3.56958">
        <ele>528.86</ele>
        <time>2015-02-19T10:12:00Z</time>
      </trkpt>
      <trkpt lat="43.78274" lon="3.56952">
        <ele>530.3</ele>
        <time>2015-02-19T10:12:14Z</time>
      </trkpt>
      <trkpt lat="43.78273" lon="3.56951">
        <ele>530.3</ele>
        <time>2015-02-19T10:12:15Z</time>
      </trkpt>
      <trkpt lat="43.78262" lon="3.56934">
        <ele>531.75</ele>
        <time>2015-02-19T10:12:28Z</time>
      </trkpt>
      <trkpt lat="43.78258" lon="3.56912">
        <ele>532.71</ele>
        <time>2015-02-19T10:12:40Z</time>
      </trkpt>
      <trkpt lat="43.78257" lon="3.56906">
        <ele>533.19</ele>
        <time>2015-02-19T10:12:51Z</time>
      </trkpt>
      <trkpt lat="43.78256" lon="3.56903">
        <ele>533.67</ele>
        <time>2015-02-19T10:13:07Z</time>
      </trkpt>
      <trkpt lat="43.78255" lon="3.56897">
        <ele>534.15</ele>
        <time>2015-02-19T10:13:18Z</time>
      </trkpt>
      <trkpt lat="43.78254" lon="3.56892">
        <ele>534.15</ele>
        <time>2015-02-19T10:13:22Z</time>
      </trkpt>
      <trkpt lat="43.78252" lon="3.5688">
        <ele>535.11</ele>
        <time>2015-02-19T10:13:30Z</time>
      </trkpt>
      <trkpt lat="43.78252" lon="3.56864">
        <ele>536.07</ele>
        <time>2015-02-19T10:13:41Z</time>
      </trkpt>
      <trkpt lat="43.78251" lon="3.56857">
        <ele>537.03</ele>
        <time>2015-02-19T10:13:52Z</time>
      </trkpt>
      <trkpt lat="43.78247" lon="3.56842">
        <ele>537.51</ele>
        <time>2015-02-19T10:14:03Z</time>
      </trkpt>
      <trkpt lat="43.78246" lon="3.56837">
        <ele>536.55</ele>
        <time>2015-02-19T10:14:13Z</time>
      </trkpt>
      <trkpt lat="43.7824" lon="3.56831">
        <ele>536.07</ele>
        <time>2015-02-19T10:14:21Z</time>
      </trkpt>
      <trkpt lat="43.78228" lon="3.56818">
        <ele>537.51</ele>
        <time>2015-02-19T10:14:32Z</time>
      </trkpt>
      <trkpt lat="43.78222" lon="3.56814">
        <ele>538.48</ele>
        <time>2015-02-19T10:14:38Z</time>
      </trkpt>
      <trkpt lat="43.7822" lon="3.56816">
        <ele>539.44</ele>
        <time>2015-02-19T10:14:43Z</time>
      </trkpt>
      <trkpt lat="43.78213" lon="3.56821">
        <ele>539.44</ele>
        <time>2015-02-19T10:14:51Z</time>
      </trkpt>
      <trkpt lat="43.78211" lon="3.56836">
        <ele>540.88</ele>
        <time>2015-02-19T10:15:02Z</time>
      </trkpt>
      <trkpt lat="43.78211" lon="3.5684">
        <ele>540.88</ele>
        <time>2015-02-19T10:15:04Z</time>
      </trkpt>
      <trkpt lat="43.78204" lon="3.56854">
        <ele>540.88</ele>
        <time>2015-02-19T10:15:16Z</time>
      </trkpt>
      <trkpt lat="43.78196" lon="3.56863">
        <ele>540.88</ele>
        <time>2015-02-19T10:15:27Z</time>
      </trkpt>
      <trkpt lat="43.78193" lon="3.56871">
        <ele>540.88</ele>
        <time>2015-02-19T10:15:33Z</time>
      </trkpt>
      <trkpt lat="43.78188" lon="3.56886">
        <ele>540.4</ele>
        <time>2015-02-19T10:15:45Z</time>
      </trkpt>
      <trkpt lat="43.7818" lon="3.569">
        <ele>538.96</ele>
        <time>2015-02-19T10:15:58Z</time>
      </trkpt>
      <trkpt lat="43.78171" lon="3.56919">
        <ele>539.44</ele>
        <time>2015-02-19T10:16:12Z</time>
      </trkpt>
      <trkpt lat="43.78165" lon="3.56931">
        <ele>539.92</ele>
        <time>2015-02-19T10:16:27Z</time>
      </trkpt>
      <trkpt lat="43.78158" lon="3.5694">
        <ele>537.99</ele>
        <time>2015-02-19T10:16:39Z</time>
      </trkpt>
      <trkpt lat="43.78154" lon="3.56953">
        <ele>538.96</ele>
        <time>2015-02-19T10:16:55Z</time>
      </trkpt>
      <trkpt lat="43.7815" lon="3.56955">
        <ele>538.96</ele>
        <time>2015-02-19T10:17:04Z</time>
      </trkpt>
      <trkpt lat="43.78144" lon="3.56954">
        <ele>540.4</ele>
        <time>2015-02-19T10:17:14Z</time>
      </trkpt>
      <trkpt lat="43.78138" lon="3.56952">
        <ele>548.57</ele>
        <time>2015-02-19T10:17:26Z</time>
      </trkpt>
      <trkpt lat="43.78138" lon="3.56952">
        <ele>548.57</ele>
        <time>2015-02-19T10:17:27Z</time>
      </trkpt>
      <trkpt lat="43.78135" lon="3.56947">
        <ele>550.01</ele>
        <time>2015-02-19T10:17:37Z</time>
      </trkpt>
      <trkpt lat="43.78133" lon="3.56941">
        <ele>550.49</ele>
        <time>2015-02-19T10:17:45Z</time>
      </trkpt>
      <trkpt lat="43.78127" lon="3.56935">
        <ele>552.41</ele>
        <time>2015-02-19T10:17:57Z</time>
      </trkpt>
      <trkpt lat="43.78127" lon="3.56936">
        <ele>552.9</ele>
        <time>2015-02-19T10:18:08Z</time>
      </trkpt>
      <trkpt lat="43.78127" lon="3.56937">
        <ele>553.38</ele>
        <time>2015-02-19T10:18:27Z</time>
      </trkpt>
      <trkpt lat="43.78125" lon="3.5694">
        <ele>553.38</ele>
        <time>2015-02-19T10:18:52Z</time>
      </trkpt>
      <trkpt lat="43.78119" lon="3.56945">
        <ele>552.9</ele>
        <time>2015-02-19T10:19:04Z</time>
      </trkpt>
      <trkpt lat="43.78114" lon="3.56937">
        <ele>553.38</ele>
        <time>2015-02-19T10:19:18Z</time>
      </trkpt>
      <trkpt lat="43.78112" lon="3.56934">
        <ele>554.34</ele>
        <time>2015-02-19T10:19:21Z</time>
      </trkpt>
      <trkpt lat="43.78111" lon="3.56926">
        <ele>556.26</ele>
        <time>2015-02-19T10:19:30Z</time>
      </trkpt>
      <trkpt lat="43.78106" lon="3.56914">
        <ele>556.74</ele>
        <time>2015-02-19T10:19:42Z</time>
      </trkpt>
      <trkpt lat="43.78103" lon="3.56904">
        <ele>558.66</ele>
        <time>2015-02-19T10:19:54Z</time>
      </trkpt>
      <trkpt lat="43.78104" lon="3.56892">
        <ele>561.55</ele>
        <time>2015-02-19T10:20:06Z</time>
      </trkpt>
      <trkpt lat="43.78105" lon="3.56886">
        <ele>563.47</ele>
        <time>2015-02-19T10:20:12Z</time>
      </trkpt>
      <trkpt lat="43.78102" lon="3.56886">
        <ele>562.51</ele>
        <time>2015-02-19T10:20:22Z</time>
      </trkpt>
      <trkpt lat="43.78099" lon="3.56886">
        <ele>564.91</ele>
        <time>2015-02-19T10:20:38Z</time>
      </trkpt>
      <trkpt lat="43.78094" lon="3.56889">
        <ele>565.87</ele>
        <time>2015-02-19T10:20:44Z</time>
      </trkpt>
      <trkpt lat="43.78087" lon="3.56893">
        <ele>567.8</ele>
        <time>2015-02-19T10:20:54Z</time>
      </trkpt>
      <trkpt lat="43.7808" lon="3.56897">
        <ele>568.76</ele>
        <time>2015-02-19T10:21:04Z</time>
      </trkpt>
      <trkpt lat="43.78071" lon="3.569">
        <ele>569.24</ele>
        <time>2015-02-19T10:21:15Z</time>
      </trkpt>
      <trkpt lat="43.78063" lon="3.56897">
        <ele>570.2</ele>
        <time>2015-02-19T10:21:27Z</time>
      </trkpt>
      <trkpt lat="43.78056" lon="3.56895">
        <ele>570.68</ele>
        <time>2015-02-19T10:21:38Z</time>
      </trkpt>
      <trkpt lat="43.78049" lon="3.56889">
        <ele>570.2</ele>
        <time>2015-02-19T10:21:50Z</time>
      </trkpt>
      <trkpt lat="43.78046" lon="3.56886">
        <ele>571.16</ele>
        <time>2015-02-19T10:21:55Z</time>
      </trkpt>
      <trkpt lat="43.78043" lon="3.56884">
        <ele>570.68</ele>
        <time>2015-02-19T10:22:00Z</time>
      </trkpt>
      <trkpt lat="43.78034" lon="3.5688">
        <ele>571.64</ele>
        <time>2015-02-19T10:22:13Z</time>
      </trkpt>
      <trkpt lat="43.78029" lon="3.56874">
        <ele>571.64</ele>
        <time>2015-02-19T10:22:25Z</time>
      </trkpt>
      <trkpt lat="43.78024" lon="3.56873">
        <ele>572.6</ele>
        <time>2015-02-19T10:22:35Z</time>
      </trkpt>
      <trkpt lat="43.78018" lon="3.56872">
        <ele>573.08</ele>
        <time>2015-02-19T10:22:45Z</time>
      </trkpt>
      <trkpt lat="43.78014" lon="3.5687">
        <ele>572.6</ele>
        <time>2015-02-19T10:22:58Z</time>
      </trkpt>
      <trkpt lat="43.78008" lon="3.56862">
        <ele>574.53</ele>
        <time>2015-02-19T10:23:09Z</time>
      </trkpt>
      <trkpt lat="43.78005" lon="3.56858">
        <ele>575.97</ele>
        <time>2015-02-19T10:23:13Z</time>
      </trkpt>
      <trkpt lat="43.78002" lon="3.56848">
        <ele>577.41</ele>
        <time>2015-02-19T10:23:24Z</time>
      </trkpt>
      <trkpt lat="43.78006" lon="3.5684">
        <ele>577.89</ele>
        <time>2015-02-19T10:23:34Z</time>
      </trkpt>
      <trkpt lat="43.78012" lon="3.56836">
        <ele>578.37</ele>
        <time>2015-02-19T10:23:44Z</time>
      </trkpt>
      <trkpt lat="43.78017" lon="3.56828">
        <ele>579.81</ele>
        <time>2015-02-19T10:23:54Z</time>
      </trkpt>
      <trkpt lat="43.78017" lon="3.56817">
        <ele>583.18</ele>
        <time>2015-02-19T10:24:05Z</time>
      </trkpt>
      <trkpt lat="43.78014" lon="3.56813">
        <ele>584.14</ele>
        <time>2015-02-19T10:24:12Z</time>
      </trkpt>
      <trkpt lat="43.78006" lon="3.5681">
        <ele>585.58</ele>
        <time>2015-02-19T10:24:22Z</time>
      </trkpt>
      <trkpt lat="43.78" lon="3.56802">
        <ele>587.02</ele>
        <time>2015-02-19T10:24:34Z</time>
      </trkpt>
      <trkpt lat="43.77995" lon="3.56792">
        <ele>589.91</ele>
        <time>2015-02-19T10:24:45Z</time>
      </trkpt>
      <trkpt lat="43.77999" lon="3.56783">
        <ele>591.83</ele>
        <time>2015-02-19T10:24:55Z</time>
      </trkpt>
      <trkpt lat="43.78005" lon="3.56775">
        <ele>592.31</ele>
        <time>2015-02-19T10:25:07Z</time>
      </trkpt>
      <trkpt lat="43.7801" lon="3.5677">
        <ele>592.79</ele>
        <time>2015-02-19T10:25:17Z</time>
      </trkpt>
      <trkpt lat="43.78016" lon="3.56764">
        <ele>594.71</ele>
        <time>2015-02-19T10:25:26Z</time>
      </trkpt>
      <trkpt lat="43.78019" lon="3.56758">
        <ele>595.19</ele>
        <time>2015-02-19T10:25:32Z</time>
      </trkpt>
      <trkpt lat="43.78024" lon="3.56747">
        <ele>597.6</ele>
        <time>2015-02-19T10:25:43Z</time>
      </trkpt>
      <trkpt lat="43.78025" lon="3.56745">
        <ele>598.08</ele>
        <time>2015-02-19T10:25:52Z</time>
      </trkpt>
      <trkpt lat="43.78026" lon="3.56745">
        <ele>597.6</ele>
        <time>2015-02-19T10:26:04Z</time>
      </trkpt>
      <trkpt lat="43.78031" lon="3.5675">
        <ele>597.12</ele>
        <time>2015-02-19T10:26:10Z</time>
      </trkpt>
      <trkpt lat="43.78037" lon="3.56752">
        <ele>596.64</ele>
        <time>2015-02-19T10:26:20Z</time>
      </trkpt>
      <trkpt lat="43.78037" lon="3.56752">
        <ele>596.15</ele>
        <time>2015-02-19T10:26:43Z</time>
      </trkpt>
      <trkpt lat="43.78037" lon="3.56751">
        <ele>597.12</ele>
        <time>2015-02-19T10:26:58Z</time>
      </trkpt>
      <trkpt lat="43.78036" lon="3.5675">
        <ele>596.64</ele>
        <time>2015-02-19T10:27:04Z</time>
      </trkpt>
      <trkpt lat="43.78028" lon="3.56745">
        <ele>595.19</ele>
        <time>2015-02-19T10:27:13Z</time>
      </trkpt>
      <trkpt lat="43.78023" lon="3.56737">
        <ele>594.23</ele>
        <time>2015-02-19T10:27:23Z</time>
      </trkpt>
      <trkpt lat="43.78021" lon="3.56734">
        <ele>594.23</ele>
        <time>2015-02-19T10:27:26Z</time>
      </trkpt>
      <trkpt lat="43.78016" lon="3.56717">
        <ele>593.27</ele>
        <time>2015-02-19T10:27:38Z</time>
      </trkpt>
      <trkpt lat="43.78014" lon="3.56712">
        <ele>594.71</ele>
        <time>2015-02-19T10:27:47Z</time>
      </trkpt>
      <trkpt lat="43.78014" lon="3.56712">
        <ele>594.71</ele>
        <time>2015-02-19T10:27:55Z</time>
      </trkpt>
      <trkpt lat="43.78006" lon="3.56706">
        <ele>595.19</ele>
        <time>2015-02-19T10:28:04Z</time>
      </trkpt>
      <trkpt lat="43.78003" lon="3.56701">
        <ele>594.71</ele>
        <time>2015-02-19T10:28:13Z</time>
      </trkpt>
      <trkpt lat="43.78001" lon="3.56697">
        <ele>594.23</ele>
        <time>2015-02-19T10:28:30Z</time>
      </trkpt>
      <trkpt lat="43.78" lon="3.56689">
        <ele>593.75</ele>
        <time>2015-02-19T10:28:36Z</time>
      </trkpt>
      <trkpt lat="43.77994" lon="3.56678">
        <ele>590.39</ele>
        <time>2015-02-19T10:28:47Z</time>
      </trkpt>
      <trkpt lat="43.77988" lon="3.56668">
        <ele>587.02</ele>
        <time>2015-02-19T10:28:58Z</time>
      </trkpt>
      <trkpt lat="43.77986" lon="3.56667">
        <ele>586.06</ele>
        <time>2015-02-19T10:29:01Z</time>
      </trkpt>
      <trkpt lat="43.77975" lon="3.56656">
        <ele>584.62</ele>
        <time>2015-02-19T10:29:12Z</time>
      </trkpt>
      <trkpt lat="43.77972" lon="3.56652">
        <ele>585.58</ele>
        <time>2015-02-19T10:29:16Z</time>
      </trkpt>
      <trkpt lat="43.77965" lon="3.56641">
        <ele>586.06</ele>
        <time>2015-02-19T10:29:27Z</time>
      </trkpt>
      <trkpt lat="43.77961" lon="3.56628">
        <ele>586.06</ele>
        <time>2015-02-19T10:29:37Z</time>
      </trkpt>
      <trkpt lat="43.77953" lon="3.56614">
        <ele>586.06</ele>
        <time>2015-02-19T10:29:46Z</time>
      </trkpt>
      <trkpt lat="43.77949" lon="3.56599">
        <ele>585.58</ele>
        <time>2015-02-19T10:29:57Z</time>
      </trkpt>
      <trkpt lat="43.77946" lon="3.56583">
        <ele>584.62</ele>
        <time>2015-02-19T10:30:07Z</time>
      </trkpt>
      <trkpt lat="43.77942" lon="3.56574">
        <ele>583.66</ele>
        <time>2015-02-19T10:30:13Z</time>
      </trkpt>
      <trkpt lat="43.7794" lon="3.56564">
        <ele>583.18</ele>
        <time>2015-02-19T10:30:20Z</time>
      </trkpt>
      <trkpt lat="43.77935" lon="3.56544">
        <ele>580.77</ele>
        <time>2015-02-19T10:30:31Z</time>
      </trkpt>
      <trkpt lat="43.77933" lon="3.56539">
        <ele>580.29</ele>
        <time>2015-02-19T10:30:35Z</time>
      </trkpt>
      <trkpt lat="43.77927" lon="3.56524">
        <ele>578.85</ele>
        <time>2015-02-19T10:30:45Z</time>
      </trkpt>
      <trkpt lat="43.77921" lon="3.56503">
        <ele>579.33</ele>
        <time>2015-02-19T10:30:57Z</time>
      </trkpt>
      <trkpt lat="43.77915" lon="3.56486">
        <ele>580.29</ele>
        <time>2015-02-19T10:31:07Z</time>
      </trkpt>
      <trkpt lat="43.77909" lon="3.56468">
        <ele>579.81</ele>
        <time>2015-02-19T10:31:18Z</time>
      </trkpt>
      <trkpt lat="43.77903" lon="3.5646">
        <ele>579.81</ele>
        <time>2015-02-19T10:31:27Z</time>
      </trkpt>
      <trkpt lat="43.77902" lon="3.56457">
        <ele>579.81</ele>
        <time>2015-02-19T10:31:29Z</time>
      </trkpt>
      <trkpt lat="43.77899" lon="3.5645">
        <ele>579.33</ele>
        <time>2015-02-19T10:31:33Z</time>
      </trkpt>
      <trkpt lat="43.77895" lon="3.5644">
        <ele>579.81</ele>
        <time>2015-02-19T10:31:39Z</time>
      </trkpt>
      <trkpt lat="43.77894" lon="3.56425">
        <ele>580.77</ele>
        <time>2015-02-19T10:31:50Z</time>
      </trkpt>
      <trkpt lat="43.77893" lon="3.5642">
        <ele>581.25</ele>
        <time>2015-02-19T10:31:54Z</time>
      </trkpt>
      <trkpt lat="43.77891" lon="3.56401">
        <ele>582.22</ele>
        <time>2015-02-19T10:32:06Z</time>
      </trkpt>
      <trkpt lat="43.77886" lon="3.56382">
        <ele>582.22</ele>
        <time>2015-02-19T10:32:18Z</time>
      </trkpt>
      <trkpt lat="43.7788" lon="3.56368">
        <ele>581.25</ele>
        <time>2015-02-19T10:32:27Z</time>
      </trkpt>
      <trkpt lat="43.77877" lon="3.56365">
        <ele>581.25</ele>
        <time>2015-02-19T10:32:33Z</time>
      </trkpt>
      <trkpt lat="43.77869" lon="3.56354">
        <ele>581.73</ele>
        <time>2015-02-19T10:32:44Z</time>
      </trkpt>
      <trkpt lat="43.77866" lon="3.56346">
        <ele>582.7</ele>
        <time>2015-02-19T10:32:48Z</time>
      </trkpt>
      <trkpt lat="43.77856" lon="3.5633">
        <ele>583.18</ele>
        <time>2015-02-19T10:32:59Z</time>
      </trkpt>
      <trkpt lat="43.77852" lon="3.56326">
        <ele>582.22</ele>
        <time>2015-02-19T10:33:10Z</time>
      </trkpt>
      <trkpt lat="43.77849" lon="3.56319">
        <ele>582.7</ele>
        <time>2015-02-19T10:33:26Z</time>
      </trkpt>
      <trkpt lat="43.77848" lon="3.56318">
        <ele>582.7</ele>
        <time>2015-02-19T10:33:32Z</time>
      </trkpt>
      <trkpt lat="43.77846" lon="3.56312">
        <ele>582.7</ele>
        <time>2015-02-19T10:33:36Z</time>
      </trkpt>
      <trkpt lat="43.7784" lon="3.56298">
        <ele>581.73</ele>
        <time>2015-02-19T10:33:48Z</time>
      </trkpt>
      <trkpt lat="43.77832" lon="3.56285">
        <ele>580.29</ele>
        <time>2015-02-19T10:34:00Z</time>
      </trkpt>
      <trkpt lat="43.77825" lon="3.56273">
        <ele>577.89</ele>
        <time>2015-02-19T10:34:11Z</time>
      </trkpt>
      <trkpt lat="43.77818" lon="3.56258">
        <ele>576.45</ele>
        <time>2015-02-19T10:34:22Z</time>
      </trkpt>
      <trkpt lat="43.77814" lon="3.56241">
        <ele>575.49</ele>
        <time>2015-02-19T10:34:33Z</time>
      </trkpt>
      <trkpt lat="43.77808" lon="3.56222">
        <ele>574.04</ele>
        <time>2015-02-19T10:34:44Z</time>
      </trkpt>
      <trkpt lat="43.77804" lon="3.56207">
        <ele>573.56</ele>
        <time>2015-02-19T10:34:54Z</time>
      </trkpt>
      <trkpt lat="43.77801" lon="3.56197">
        <ele>574.53</ele>
        <time>2015-02-19T10:35:00Z</time>
      </trkpt>
      <trkpt lat="43.77796" lon="3.56181">
        <ele>573.56</ele>
        <time>2015-02-19T10:35:11Z</time>
      </trkpt>
      <trkpt lat="43.77789" lon="3.56161">
        <ele>574.53</ele>
        <time>2015-02-19T10:35:24Z</time>
      </trkpt>
      <trkpt lat="43.77782" lon="3.5614">
        <ele>574.53</ele>
        <time>2015-02-19T10:35:36Z</time>
      </trkpt>
      <trkpt lat="43.77782" lon="3.56137">
        <ele>575.01</ele>
        <time>2015-02-19T10:35:38Z</time>
      </trkpt>
      <trkpt lat="43.77778" lon="3.56126">
        <ele>575.01</ele>
        <time>2015-02-19T10:35:44Z</time>
      </trkpt>
      <trkpt lat="43.77771" lon="3.5611">
        <ele>576.45</ele>
        <time>2015-02-19T10:35:56Z</time>
      </trkpt>
      <trkpt lat="43.77765" lon="3.56095">
        <ele>577.41</ele>
        <time>2015-02-19T10:36:06Z</time>
      </trkpt>
      <trkpt lat="43.77759" lon="3.56078">
        <ele>579.33</ele>
        <time>2015-02-19T10:36:17Z</time>
      </trkpt>
      <trkpt lat="43.77752" lon="3.56055">
        <ele>581.25</ele>
        <time>2015-02-19T10:36:29Z</time>
      </trkpt>
      <trkpt lat="43.77751" lon="3.56053">
        <ele>581.73</ele>
        <time>2015-02-19T10:36:30Z</time>
      </trkpt>
      <trkpt lat="43.77746" lon="3.56037">
        <ele>583.18</ele>
        <time>2015-02-19T10:36:42Z</time>
      </trkpt>
      <trkpt lat="43.77739" lon="3.56018">
        <ele>583.66</ele>
        <time>2015-02-19T10:36:54Z</time>
      </trkpt>
      <trkpt lat="43.77733" lon="3.55998">
        <ele>583.18</ele>
        <time>2015-02-19T10:37:06Z</time>
      </trkpt>
      <trkpt lat="43.77727" lon="3.55977">
        <ele>583.18</ele>
        <time>2015-02-19T10:37:18Z</time>
      </trkpt>
      <trkpt lat="43.77726" lon="3.55963">
        <ele>582.22</ele>
        <time>2015-02-19T10:37:25Z</time>
      </trkpt>
      <trkpt lat="43.77719" lon="3.55941">
        <ele>584.14</ele>
        <time>2015-02-19T10:37:40Z</time>
      </trkpt>
      <trkpt lat="43.77709" lon="3.55924">
        <ele>584.14</ele>
        <time>2015-02-19T10:37:51Z</time>
      </trkpt>
      <trkpt lat="43.77707" lon="3.55921">
        <ele>584.62</ele>
        <time>2015-02-19T10:37:53Z</time>
      </trkpt>
      <trkpt lat="43.77704" lon="3.55916">
        <ele>585.1</ele>
        <time>2015-02-19T10:37:56Z</time>
      </trkpt>
      <trkpt lat="43.7769" lon="3.55895">
        <ele>588.95</ele>
        <time>2015-02-19T10:38:13Z</time>
      </trkpt>
      <trkpt lat="43.77682" lon="3.55872">
        <ele>588.46</ele>
        <time>2015-02-19T10:38:25Z</time>
      </trkpt>
      <trkpt lat="43.77682" lon="3.5587">
        <ele>588.46</ele>
        <time>2015-02-19T10:38:26Z</time>
      </trkpt>
      <trkpt lat="43.77674" lon="3.5584">
        <ele>587.5</ele>
        <time>2015-02-19T10:38:41Z</time>
      </trkpt>
      <trkpt lat="43.77666" lon="3.55824">
        <ele>588.95</ele>
        <time>2015-02-19T10:38:53Z</time>
      </trkpt>
      <trkpt lat="43.77654" lon="3.55802">
        <ele>593.75</ele>
        <time>2015-02-19T10:39:09Z</time>
      </trkpt>
      <trkpt lat="43.77643" lon="3.55777">
        <ele>595.67</ele>
        <time>2015-02-19T10:39:24Z</time>
      </trkpt>
      <trkpt lat="43.7763" lon="3.55758">
        <ele>597.12</ele>
        <time>2015-02-19T10:39:36Z</time>
      </trkpt>
      <trkpt lat="43.77621" lon="3.55743">
        <ele>599.04</ele>
        <time>2015-02-19T10:39:47Z</time>
      </trkpt>
      <trkpt lat="43.77615" lon="3.55733">
        <ele>600.48</ele>
        <time>2015-02-19T10:39:55Z</time>
      </trkpt>
      <trkpt lat="43.77604" lon="3.55713">
        <ele>597.6</ele>
        <time>2015-02-19T10:40:07Z</time>
      </trkpt>
      <trkpt lat="43.77599" lon="3.55706">
        <ele>597.6</ele>
        <time>2015-02-19T10:40:17Z</time>
      </trkpt>
      <trkpt lat="43.77599" lon="3.55706">
        <ele>597.6</ele>
        <time>2015-02-19T10:40:20Z</time>
      </trkpt>
      <trkpt lat="43.77597" lon="3.55702">
        <ele>597.12</ele>
        <time>2015-02-19T10:40:24Z</time>
      </trkpt>
      <trkpt lat="43.77588" lon="3.55687">
        <ele>595.67</ele>
        <time>2015-02-19T10:40:35Z</time>
      </trkpt>
      <trkpt lat="43.77587" lon="3.55685">
        <ele>595.67</ele>
        <time>2015-02-19T10:40:37Z</time>
      </trkpt>
      <trkpt lat="43.77579" lon="3.55668">
        <ele>594.23</ele>
        <time>2015-02-19T10:40:48Z</time>
      </trkpt>
      <trkpt lat="43.77578" lon="3.55663">
        <ele>594.23</ele>
        <time>2015-02-19T10:40:51Z</time>
      </trkpt>
      <trkpt lat="43.77575" lon="3.55659">
        <ele>594.71</ele>
        <time>2015-02-19T10:40:55Z</time>
      </trkpt>
      <trkpt lat="43.77568" lon="3.55644">
        <ele>595.19</ele>
        <time>2015-02-19T10:41:05Z</time>
      </trkpt>
      <trkpt lat="43.77567" lon="3.55642">
        <ele>595.19</ele>
        <time>2015-02-19T10:41:07Z</time>
      </trkpt>
      <trkpt lat="43.77558" lon="3.55627">
        <ele>595.67</ele>
        <time>2015-02-19T10:41:18Z</time>
      </trkpt>
      <trkpt lat="43.77552" lon="3.55614">
        <ele>596.64</ele>
        <time>2015-02-19T10:41:28Z</time>
      </trkpt>
      <trkpt lat="43.77552" lon="3.55596">
        <ele>597.12</ele>
        <time>2015-02-19T10:41:40Z</time>
      </trkpt>
      <trkpt lat="43.77551" lon="3.55587">
        <ele>598.08</ele>
        <time>2015-02-19T10:41:46Z</time>
      </trkpt>
      <trkpt lat="43.77551" lon="3.55579">
        <ele>598.08</ele>
        <time>2015-02-19T10:41:52Z</time>
      </trkpt>
      <trkpt lat="43.77551" lon="3.55576">
        <ele>598.08</ele>
        <time>2015-02-19T10:41:54Z</time>
      </trkpt>
      <trkpt lat="43.77552" lon="3.55567">
        <ele>599.52</ele>
        <time>2015-02-19T10:42:04Z</time>
      </trkpt>
      <trkpt lat="43.77552" lon="3.55561">
        <ele>600</ele>
        <time>2015-02-19T10:42:09Z</time>
      </trkpt>
      <trkpt lat="43.77552" lon="3.55551">
        <ele>600.96</ele>
        <time>2015-02-19T10:42:18Z</time>
      </trkpt>
      <trkpt lat="43.77553" lon="3.55545">
        <ele>601.92</ele>
        <time>2015-02-19T10:42:23Z</time>
      </trkpt>
      <trkpt lat="43.77556" lon="3.55536">
        <ele>600.96</ele>
        <time>2015-02-19T10:42:34Z</time>
      </trkpt>
      <trkpt lat="43.77558" lon="3.55527">
        <ele>600.48</ele>
        <time>2015-02-19T10:42:46Z</time>
      </trkpt>
      <trkpt lat="43.77558" lon="3.55527">
        <ele>599.04</ele>
        <time>2015-02-19T10:43:04Z</time>
      </trkpt>
      <trkpt lat="43.77558" lon="3.55528">
        <ele>599.04</ele>
        <time>2015-02-19T10:43:28Z</time>
      </trkpt>
      <trkpt lat="43.77558" lon="3.55528">
        <ele>599.04</ele>
        <time>2015-02-19T10:43:53Z</time>
      </trkpt>
      <trkpt lat="43.77562" lon="3.55526">
        <ele>599.52</ele>
        <time>2015-02-19T10:44:12Z</time>
      </trkpt>
      <trkpt lat="43.77572" lon="3.55517">
        <ele>599.52</ele>
        <time>2015-02-19T10:44:23Z</time>
      </trkpt>
      <trkpt lat="43.77582" lon="3.5551">
        <ele>599.52</ele>
        <time>2015-02-19T10:44:35Z</time>
      </trkpt>
      <trkpt lat="43.77597" lon="3.55503">
        <ele>601.44</ele>
        <time>2015-02-19T10:44:47Z</time>
      </trkpt>
      <trkpt lat="43.77604" lon="3.55494">
        <ele>601.44</ele>
        <time>2015-02-19T10:44:58Z</time>
      </trkpt>
      <trkpt lat="43.77608" lon="3.55494">
        <ele>601.44</ele>
        <time>2015-02-19T10:45:02Z</time>
      </trkpt>
      <trkpt lat="43.77612" lon="3.55493">
        <ele>601.44</ele>
        <time>2015-02-19T10:45:06Z</time>
      </trkpt>
      <trkpt lat="43.77615" lon="3.55489">
        <ele>602.4</ele>
        <time>2015-02-19T10:45:10Z</time>
      </trkpt>
      <trkpt lat="43.77623" lon="3.55481">
        <ele>602.4</ele>
        <time>2015-02-19T10:45:18Z</time>
      </trkpt>
      <trkpt lat="43.77627" lon="3.55474">
        <ele>602.88</ele>
        <time>2015-02-19T10:45:25Z</time>
      </trkpt>
      <trkpt lat="43.77635" lon="3.55464">
        <ele>601.92</ele>
        <time>2015-02-19T10:45:34Z</time>
      </trkpt>
      <trkpt lat="43.77638" lon="3.55457">
        <ele>600.96</ele>
        <time>2015-02-19T10:45:39Z</time>
      </trkpt>
      <trkpt lat="43.77644" lon="3.55447">
        <ele>600</ele>
        <time>2015-02-19T10:45:48Z</time>
      </trkpt>
      <trkpt lat="43.77647" lon="3.55443">
        <ele>599.52</ele>
        <time>2015-02-19T10:45:51Z</time>
      </trkpt>
      <trkpt lat="43.77656" lon="3.5543">
        <ele>600</ele>
        <time>2015-02-19T10:46:01Z</time>
      </trkpt>
      <trkpt lat="43.77659" lon="3.55425">
        <ele>600.48</ele>
        <time>2015-02-19T10:46:06Z</time>
      </trkpt>
      <trkpt lat="43.77664" lon="3.55417">
        <ele>600</ele>
        <time>2015-02-19T10:46:12Z</time>
      </trkpt>
      <trkpt lat="43.77674" lon="3.55408">
        <ele>600</ele>
        <time>2015-02-19T10:46:22Z</time>
      </trkpt>
      <trkpt lat="43.77684" lon="3.55401">
        <ele>599.52</ele>
        <time>2015-02-19T10:46:31Z</time>
      </trkpt>
      <trkpt lat="43.77687" lon="3.55399">
        <ele>599.52</ele>
        <time>2015-02-19T10:46:34Z</time>
      </trkpt>
      <trkpt lat="43.77699" lon="3.55396">
        <ele>600.48</ele>
        <time>2015-02-19T10:46:44Z</time>
      </trkpt>
      <trkpt lat="43.77711" lon="3.55394">
        <ele>600.48</ele>
        <time>2015-02-19T10:46:54Z</time>
      </trkpt>
      <trkpt lat="43.77725" lon="3.55395">
        <ele>600</ele>
        <time>2015-02-19T10:47:04Z</time>
      </trkpt>
      <trkpt lat="43.77737" lon="3.55393">
        <ele>600</ele>
        <time>2015-02-19T10:47:14Z</time>
      </trkpt>
      <trkpt lat="43.77743" lon="3.5539">
        <ele>600</ele>
        <time>2015-02-19T10:47:20Z</time>
      </trkpt>
      <trkpt lat="43.7776" lon="3.55384">
        <ele>599.52</ele>
        <time>2015-02-19T10:47:31Z</time>
      </trkpt>
      <trkpt lat="43.77765" lon="3.5538">
        <ele>599.52</ele>
        <time>2015-02-19T10:47:38Z</time>
      </trkpt>
      <trkpt lat="43.77775" lon="3.55376">
        <ele>599.04</ele>
        <time>2015-02-19T10:47:45Z</time>
      </trkpt>
      <trkpt lat="43.77789" lon="3.55369">
        <ele>598.56</ele>
        <time>2015-02-19T10:47:57Z</time>
      </trkpt>
      <trkpt lat="43.77801" lon="3.55362">
        <ele>599.04</ele>
        <time>2015-02-19T10:48:08Z</time>
      </trkpt>
      <trkpt lat="43.77807" lon="3.55354">
        <ele>599.52</ele>
        <time>2015-02-19T10:48:15Z</time>
      </trkpt>
      <trkpt lat="43.77816" lon="3.55338">
        <ele>599.04</ele>
        <time>2015-02-19T10:48:25Z</time>
      </trkpt>
      <trkpt lat="43.77816" lon="3.55325">
        <ele>599.04</ele>
        <time>2015-02-19T10:48:34Z</time>
      </trkpt>
      <trkpt lat="43.77817" lon="3.5532">
        <ele>598.56</ele>
        <time>2015-02-19T10:48:36Z</time>
      </trkpt>
      <trkpt lat="43.77821" lon="3.55303">
        <ele>598.08</ele>
        <time>2015-02-19T10:48:46Z</time>
      </trkpt>
      <trkpt lat="43.77821" lon="3.55301">
        <ele>598.08</ele>
        <time>2015-02-19T10:48:48Z</time>
      </trkpt>
      <trkpt lat="43.77823" lon="3.55296">
        <ele>597.12</ele>
        <time>2015-02-19T10:48:51Z</time>
      </trkpt>
      <trkpt lat="43.77826" lon="3.55288">
        <ele>596.15</ele>
        <time>2015-02-19T10:48:58Z</time>
      </trkpt>
      <trkpt lat="43.7783" lon="3.55285">
        <ele>595.19</ele>
        <time>2015-02-19T10:49:02Z</time>
      </trkpt>
      <trkpt lat="43.77839" lon="3.55286">
        <ele>594.71</ele>
        <time>2015-02-19T10:49:12Z</time>
      </trkpt>
      <trkpt lat="43.77843" lon="3.55289">
        <ele>594.23</ele>
        <time>2015-02-19T10:49:15Z</time>
      </trkpt>
      <trkpt lat="43.77848" lon="3.55298">
        <ele>593.75</ele>
        <time>2015-02-19T10:49:22Z</time>
      </trkpt>
      <trkpt lat="43.77852" lon="3.55305">
        <ele>593.27</ele>
        <time>2015-02-19T10:49:27Z</time>
      </trkpt>
      <trkpt lat="43.7786" lon="3.55317">
        <ele>592.79</ele>
        <time>2015-02-19T10:49:37Z</time>
      </trkpt>
      <trkpt lat="43.77872" lon="3.55324">
        <ele>591.35</ele>
        <time>2015-02-19T10:49:48Z</time>
      </trkpt>
      <trkpt lat="43.77883" lon="3.55333">
        <ele>591.35</ele>
        <time>2015-02-19T10:49:59Z</time>
      </trkpt>
      <trkpt lat="43.77884" lon="3.55333">
        <ele>591.35</ele>
        <time>2015-02-19T10:50:00Z</time>
      </trkpt>
      <trkpt lat="43.77889" lon="3.55339">
        <ele>590.87</ele>
        <time>2015-02-19T10:50:05Z</time>
      </trkpt>
      <trkpt lat="43.779" lon="3.55351">
        <ele>589.91</ele>
        <time>2015-02-19T10:50:17Z</time>
      </trkpt>
      <trkpt lat="43.77908" lon="3.55362">
        <ele>589.91</ele>
        <time>2015-02-19T10:50:26Z</time>
      </trkpt>
      <trkpt lat="43.77917" lon="3.55384">
        <ele>589.91</ele>
        <time>2015-02-19T10:50:39Z</time>
      </trkpt>
      <trkpt lat="43.77926" lon="3.554">
        <ele>587.5</ele>
        <time>2015-02-19T10:50:51Z</time>
      </trkpt>
      <trkpt lat="43.77929" lon="3.55404">
        <ele>587.5</ele>
        <time>2015-02-19T10:50:55Z</time>
      </trkpt>
      <trkpt lat="43.77938" lon="3.55421">
        <ele>585.1</ele>
        <time>2015-02-19T10:51:06Z</time>
      </trkpt>
      <trkpt lat="43.77941" lon="3.55427">
        <ele>584.62</ele>
        <time>2015-02-19T10:51:11Z</time>
      </trkpt>
      <trkpt lat="43.77949" lon="3.55445">
        <ele>584.14</ele>
        <time>2015-02-19T10:51:23Z</time>
      </trkpt>
      <trkpt lat="43.77955" lon="3.55461">
        <ele>582.22</ele>
        <time>2015-02-19T10:51:34Z</time>
      </trkpt>
      <trkpt lat="43.77959" lon="3.5547">
        <ele>581.73</ele>
        <time>2015-02-19T10:51:41Z</time>
      </trkpt>
      <trkpt lat="43.77968" lon="3.55489">
        <ele>580.29</ele>
        <time>2015-02-19T10:51:53Z</time>
      </trkpt>
      <trkpt lat="43.77975" lon="3.55502">
        <ele>579.33</ele>
        <time>2015-02-19T10:52:03Z</time>
      </trkpt>
      <trkpt lat="43.7798" lon="3.55504">
        <ele>579.81</ele>
        <time>2015-02-19T10:52:07Z</time>
      </trkpt>
      <trkpt lat="43.77985" lon="3.55501">
        <ele>580.29</ele>
        <time>2015-02-19T10:52:17Z</time>
      </trkpt>
      <trkpt lat="43.77988" lon="3.55495">
        <ele>581.25</ele>
        <time>2015-02-19T10:52:25Z</time>
      </trkpt>
      <trkpt lat="43.77994" lon="3.55477">
        <ele>579.81</ele>
        <time>2015-02-19T10:52:36Z</time>
      </trkpt>
      <trkpt lat="43.78001" lon="3.55462">
        <ele>580.29</ele>
        <time>2015-02-19T10:52:46Z</time>
      </trkpt>
      <trkpt lat="43.78007" lon="3.55444">
        <ele>579.33</ele>
        <time>2015-02-19T10:52:57Z</time>
      </trkpt>
      <trkpt lat="43.78011" lon="3.55426">
        <ele>578.37</ele>
        <time>2015-02-19T10:53:09Z</time>
      </trkpt>
      <trkpt lat="43.78017" lon="3.55409">
        <ele>576.93</ele>
        <time>2015-02-19T10:53:20Z</time>
      </trkpt>
      <trkpt lat="43.78021" lon="3.55393">
        <ele>575.49</ele>
        <time>2015-02-19T10:53:30Z</time>
      </trkpt>
      <trkpt lat="43.78025" lon="3.55381">
        <ele>574.53</ele>
        <time>2015-02-19T10:53:38Z</time>
      </trkpt>
      <trkpt lat="43.78034" lon="3.55362">
        <ele>573.56</ele>
        <time>2015-02-19T10:53:50Z</time>
      </trkpt>
      <trkpt lat="43.78038" lon="3.55346">
        <ele>573.56</ele>
        <time>2015-02-19T10:54:00Z</time>
      </trkpt>
      <trkpt lat="43.78041" lon="3.55329">
        <ele>574.53</ele>
        <time>2015-02-19T10:54:10Z</time>
      </trkpt>
      <trkpt lat="43.78043" lon="3.55311">
        <ele>574.04</ele>
        <time>2015-02-19T10:54:21Z</time>
      </trkpt>
      <trkpt lat="43.78047" lon="3.55305">
        <ele>574.04</ele>
        <time>2015-02-19T10:54:25Z</time>
      </trkpt>
      <trkpt lat="43.78049" lon="3.55289">
        <ele>574.53</ele>
        <time>2015-02-19T10:54:35Z</time>
      </trkpt>
      <trkpt lat="43.7806" lon="3.55275">
        <ele>575.97</ele>
        <time>2015-02-19T10:54:46Z</time>
      </trkpt>
      <trkpt lat="43.78068" lon="3.55262">
        <ele>576.45</ele>
        <time>2015-02-19T10:54:56Z</time>
      </trkpt>
      <trkpt lat="43.78072" lon="3.55258">
        <ele>576.45</ele>
        <time>2015-02-19T10:55:00Z</time>
      </trkpt>
      <trkpt lat="43.78078" lon="3.55249">
        <ele>577.41</ele>
        <time>2015-02-19T10:55:08Z</time>
      </trkpt>
      <trkpt lat="43.78089" lon="3.55239">
        <ele>577.89</ele>
        <time>2015-02-19T10:55:19Z</time>
      </trkpt>
      <trkpt lat="43.78093" lon="3.55235">
        <ele>578.37</ele>
        <time>2015-02-19T10:55:25Z</time>
      </trkpt>
      <trkpt lat="43.78104" lon="3.55224">
        <ele>578.37</ele>
        <time>2015-02-19T10:55:36Z</time>
      </trkpt>
      <trkpt lat="43.78105" lon="3.55222">
        <ele>578.37</ele>
        <time>2015-02-19T10:55:39Z</time>
      </trkpt>
      <trkpt lat="43.78108" lon="3.55217">
        <ele>578.37</ele>
        <time>2015-02-19T10:55:43Z</time>
      </trkpt>
      <trkpt lat="43.78109" lon="3.5521">
        <ele>579.33</ele>
        <time>2015-02-19T10:55:48Z</time>
      </trkpt>
      <trkpt lat="43.78113" lon="3.55197">
        <ele>579.33</ele>
        <time>2015-02-19T10:55:57Z</time>
      </trkpt>
      <trkpt lat="43.78113" lon="3.55193">
        <ele>579.81</ele>
        <time>2015-02-19T10:56:00Z</time>
      </trkpt>
      <trkpt lat="43.78112" lon="3.55172">
        <ele>579.81</ele>
        <time>2015-02-19T10:56:13Z</time>
      </trkpt>
      <trkpt lat="43.78111" lon="3.55158">
        <ele>579.33</ele>
        <time>2015-02-19T10:56:23Z</time>
      </trkpt>
      <trkpt lat="43.78109" lon="3.55143">
        <ele>579.81</ele>
        <time>2015-02-19T10:56:32Z</time>
      </trkpt>
      <trkpt lat="43.78107" lon="3.55121">
        <ele>578.37</ele>
        <time>2015-02-19T10:56:45Z</time>
      </trkpt>
      <trkpt lat="43.78103" lon="3.55106">
        <ele>579.33</ele>
        <time>2015-02-19T10:56:55Z</time>
      </trkpt>
      <trkpt lat="43.78101" lon="3.55102">
        <ele>579.33</ele>
        <time>2015-02-19T10:56:58Z</time>
      </trkpt>
      <trkpt lat="43.78095" lon="3.55085">
        <ele>579.81</ele>
        <time>2015-02-19T10:57:09Z</time>
      </trkpt>
      <trkpt lat="43.78087" lon="3.55071">
        <ele>580.29</ele>
        <time>2015-02-19T10:57:20Z</time>
      </trkpt>
      <trkpt lat="43.78081" lon="3.55065">
        <ele>580.29</ele>
        <time>2015-02-19T10:57:30Z</time>
      </trkpt>
      <trkpt lat="43.78078" lon="3.55062">
        <ele>579.81</ele>
        <time>2015-02-19T10:57:36Z</time>
      </trkpt>
      <trkpt lat="43.78074" lon="3.55061">
        <ele>579.81</ele>
        <time>2015-02-19T10:57:39Z</time>
      </trkpt>
      <trkpt lat="43.78062" lon="3.5505">
        <ele>579.33</ele>
        <time>2015-02-19T10:57:50Z</time>
      </trkpt>
      <trkpt lat="43.78048" lon="3.55033">
        <ele>578.85</ele>
        <time>2015-02-19T10:58:03Z</time>
      </trkpt>
      <trkpt lat="43.78046" lon="3.55029">
        <ele>579.33</ele>
        <time>2015-02-19T10:58:06Z</time>
      </trkpt>
      <trkpt lat="43.78037" lon="3.55014">
        <ele>580.29</ele>
        <time>2015-02-19T10:58:17Z</time>
      </trkpt>
      <trkpt lat="43.78026" lon="3.54998">
        <ele>579.81</ele>
        <time>2015-02-19T10:58:29Z</time>
      </trkpt>
      <trkpt lat="43.78014" lon="3.54981">
        <ele>575.97</ele>
        <time>2015-02-19T10:58:42Z</time>
      </trkpt>
      <trkpt lat="43.78011" lon="3.54975">
        <ele>574.53</ele>
        <time>2015-02-19T10:58:47Z</time>
      </trkpt>
      <trkpt lat="43.78005" lon="3.54963">
        <ele>571.64</ele>
        <time>2015-02-19T10:58:55Z</time>
      </trkpt>
      <trkpt lat="43.78001" lon="3.54952">
        <ele>570.2</ele>
        <time>2015-02-19T10:59:01Z</time>
      </trkpt>
      <trkpt lat="43.78" lon="3.54947">
        <ele>569.24</ele>
        <time>2015-02-19T10:59:05Z</time>
      </trkpt>
      <trkpt lat="43.77991" lon="3.54929">
        <ele>567.8</ele>
        <time>2015-02-19T10:59:16Z</time>
      </trkpt>
      <trkpt lat="43.77989" lon="3.54924">
        <ele>567.32</ele>
        <time>2015-02-19T10:59:18Z</time>
      </trkpt>
      <trkpt lat="43.77981" lon="3.54909">
        <ele>566.83</ele>
        <time>2015-02-19T10:59:29Z</time>
      </trkpt>
      <trkpt lat="43.77972" lon="3.54896">
        <ele>566.35</ele>
        <time>2015-02-19T10:59:39Z</time>
      </trkpt>
      <trkpt lat="43.77961" lon="3.54875">
        <ele>567.8</ele>
        <time>2015-02-19T10:59:53Z</time>
      </trkpt>
      <trkpt lat="43.77959" lon="3.54873">
        <ele>568.28</ele>
        <time>2015-02-19T10:59:55Z</time>
      </trkpt>
      <trkpt lat="43.77953" lon="3.54852">
        <ele>568.76</ele>
        <time>2015-02-19T11:00:08Z</time>
      </trkpt>
      <trkpt lat="43.7795" lon="3.54846">
        <ele>568.76</ele>
        <time>2015-02-19T11:00:13Z</time>
      </trkpt>
      <trkpt lat="43.77944" lon="3.54825">
        <ele>567.8</ele>
        <time>2015-02-19T11:00:25Z</time>
      </trkpt>
      <trkpt lat="43.77937" lon="3.5481">
        <ele>564.43</ele>
        <time>2015-02-19T11:00:36Z</time>
      </trkpt>
      <trkpt lat="43.77928" lon="3.54792">
        <ele>564.43</ele>
        <time>2015-02-19T11:00:47Z</time>
      </trkpt>
      <trkpt lat="43.7792" lon="3.54779">
        <ele>564.91</ele>
        <time>2015-02-19T11:00:57Z</time>
      </trkpt>
      <trkpt lat="43.77919" lon="3.54778">
        <ele>564.91</ele>
        <time>2015-02-19T11:00:59Z</time>
      </trkpt>
      <trkpt lat="43.7791" lon="3.54767">
        <ele>565.87</ele>
        <time>2015-02-19T11:01:09Z</time>
      </trkpt>
      <trkpt lat="43.77907" lon="3.54748">
        <ele>566.83</ele>
        <time>2015-02-19T11:01:20Z</time>
      </trkpt>
      <trkpt lat="43.77905" lon="3.54744">
        <ele>567.32</ele>
        <time>2015-02-19T11:01:23Z</time>
      </trkpt>
      <trkpt lat="43.77903" lon="3.54738">
        <ele>568.76</ele>
        <time>2015-02-19T11:01:28Z</time>
      </trkpt>
      <trkpt lat="43.77905" lon="3.5472">
        <ele>570.68</ele>
        <time>2015-02-19T11:01:39Z</time>
      </trkpt>
      <trkpt lat="43.77906" lon="3.54711">
        <ele>572.12</ele>
        <time>2015-02-19T11:01:46Z</time>
      </trkpt>
      <trkpt lat="43.77913" lon="3.54694">
        <ele>574.04</ele>
        <time>2015-02-19T11:01:57Z</time>
      </trkpt>
      <trkpt lat="43.77919" lon="3.54677">
        <ele>574.53</ele>
        <time>2015-02-19T11:02:08Z</time>
      </trkpt>
      <trkpt lat="43.77926" lon="3.54659">
        <ele>573.56</ele>
        <time>2015-02-19T11:02:20Z</time>
      </trkpt>
      <trkpt lat="43.77928" lon="3.54655">
        <ele>573.08</ele>
        <time>2015-02-19T11:02:24Z</time>
      </trkpt>
      <trkpt lat="43.77933" lon="3.54638">
        <ele>572.12</ele>
        <time>2015-02-19T11:02:34Z</time>
      </trkpt>
      <trkpt lat="43.77934" lon="3.54618">
        <ele>572.6</ele>
        <time>2015-02-19T11:02:45Z</time>
      </trkpt>
      <trkpt lat="43.77928" lon="3.546">
        <ele>572.6</ele>
        <time>2015-02-19T11:02:56Z</time>
      </trkpt>
      <trkpt lat="43.77919" lon="3.54584">
        <ele>573.56</ele>
        <time>2015-02-19T11:03:07Z</time>
      </trkpt>
      <trkpt lat="43.77911" lon="3.54565">
        <ele>573.56</ele>
        <time>2015-02-19T11:03:20Z</time>
      </trkpt>
      <trkpt lat="43.77902" lon="3.54549">
        <ele>573.08</ele>
        <time>2015-02-19T11:03:31Z</time>
      </trkpt>
      <trkpt lat="43.77898" lon="3.54545">
        <ele>573.08</ele>
        <time>2015-02-19T11:03:35Z</time>
      </trkpt>
      <trkpt lat="43.77889" lon="3.54532">
        <ele>573.08</ele>
        <time>2015-02-19T11:03:46Z</time>
      </trkpt>
      <trkpt lat="43.77887" lon="3.54526">
        <ele>573.08</ele>
        <time>2015-02-19T11:03:50Z</time>
      </trkpt>
      <trkpt lat="43.77888" lon="3.54507">
        <ele>573.08</ele>
        <time>2015-02-19T11:04:02Z</time>
      </trkpt>
      <trkpt lat="43.77889" lon="3.54487">
        <ele>572.6</ele>
        <time>2015-02-19T11:04:14Z</time>
      </trkpt>
      <trkpt lat="43.77893" lon="3.5447">
        <ele>572.6</ele>
        <time>2015-02-19T11:04:25Z</time>
      </trkpt>
      <trkpt lat="43.77894" lon="3.54468">
        <ele>572.6</ele>
        <time>2015-02-19T11:04:26Z</time>
      </trkpt>
      <trkpt lat="43.77897" lon="3.54461">
        <ele>572.6</ele>
        <time>2015-02-19T11:04:31Z</time>
      </trkpt>
      <trkpt lat="43.779" lon="3.54456">
        <ele>571.64</ele>
        <time>2015-02-19T11:04:34Z</time>
      </trkpt>
      <trkpt lat="43.77901" lon="3.54448">
        <ele>571.16</ele>
        <time>2015-02-19T11:04:38Z</time>
      </trkpt>
      <trkpt lat="43.779" lon="3.54443">
        <ele>571.16</ele>
        <time>2015-02-19T11:04:41Z</time>
      </trkpt>
      <trkpt lat="43.77899" lon="3.54435">
        <ele>571.64</ele>
        <time>2015-02-19T11:04:46Z</time>
      </trkpt>
      <trkpt lat="43.77898" lon="3.54429">
        <ele>572.12</ele>
        <time>2015-02-19T11:04:49Z</time>
      </trkpt>
      <trkpt lat="43.77892" lon="3.54413">
        <ele>571.64</ele>
        <time>2015-02-19T11:05:00Z</time>
      </trkpt>
      <trkpt lat="43.77891" lon="3.54411">
        <ele>571.64</ele>
        <time>2015-02-19T11:05:02Z</time>
      </trkpt>
      <trkpt lat="43.77888" lon="3.54394">
        <ele>571.16</ele>
        <time>2015-02-19T11:05:12Z</time>
      </trkpt>
      <trkpt lat="43.77883" lon="3.54376">
        <ele>570.2</ele>
        <time>2015-02-19T11:05:23Z</time>
      </trkpt>
      <trkpt lat="43.77882" lon="3.54371">
        <ele>569.72</ele>
        <time>2015-02-19T11:05:26Z</time>
      </trkpt>
      <trkpt lat="43.77878" lon="3.54345">
        <ele>568.76</ele>
        <time>2015-02-19T11:05:39Z</time>
      </trkpt>
      <trkpt lat="43.77872" lon="3.54327">
        <ele>567.32</ele>
        <time>2015-02-19T11:05:52Z</time>
      </trkpt>
      <trkpt lat="43.77865" lon="3.54309">
        <ele>565.39</ele>
        <time>2015-02-19T11:06:02Z</time>
      </trkpt>
      <trkpt lat="43.77858" lon="3.54296">
        <ele>566.35</ele>
        <time>2015-02-19T11:06:12Z</time>
      </trkpt>
      <trkpt lat="43.77854" lon="3.54275">
        <ele>566.35</ele>
        <time>2015-02-19T11:06:23Z</time>
      </trkpt>
      <trkpt lat="43.77852" lon="3.54258">
        <ele>565.87</ele>
        <time>2015-02-19T11:06:32Z</time>
      </trkpt>
      <trkpt lat="43.77852" lon="3.54254">
        <ele>565.87</ele>
        <time>2015-02-19T11:06:35Z</time>
      </trkpt>
      <trkpt lat="43.77852" lon="3.54234">
        <ele>564.43</ele>
        <time>2015-02-19T11:06:46Z</time>
      </trkpt>
      <trkpt lat="43.77851" lon="3.54218">
        <ele>563.47</ele>
        <time>2015-02-19T11:06:56Z</time>
      </trkpt>
      <trkpt lat="43.77854" lon="3.54193">
        <ele>562.03</ele>
        <time>2015-02-19T11:07:09Z</time>
      </trkpt>
      <trkpt lat="43.77852" lon="3.54179">
        <ele>561.55</ele>
        <time>2015-02-19T11:07:18Z</time>
      </trkpt>
      <trkpt lat="43.7785" lon="3.54163">
        <ele>559.62</ele>
        <time>2015-02-19T11:07:28Z</time>
      </trkpt>
      <trkpt lat="43.7785" lon="3.54162">
        <ele>559.14</ele>
        <time>2015-02-19T11:07:29Z</time>
      </trkpt>
      <trkpt lat="43.77845" lon="3.54144">
        <ele>557.7</ele>
        <time>2015-02-19T11:07:40Z</time>
      </trkpt>
      <trkpt lat="43.77838" lon="3.54126">
        <ele>557.22</ele>
        <time>2015-02-19T11:07:51Z</time>
      </trkpt>
      <trkpt lat="43.77828" lon="3.54111">
        <ele>557.7</ele>
        <time>2015-02-19T11:08:03Z</time>
      </trkpt>
      <trkpt lat="43.77822" lon="3.54094">
        <ele>557.22</ele>
        <time>2015-02-19T11:08:14Z</time>
      </trkpt>
      <trkpt lat="43.77816" lon="3.54076">
        <ele>555.78</ele>
        <time>2015-02-19T11:08:25Z</time>
      </trkpt>
      <trkpt lat="43.77807" lon="3.54053">
        <ele>554.82</ele>
        <time>2015-02-19T11:08:37Z</time>
      </trkpt>
      <trkpt lat="43.77801" lon="3.54036">
        <ele>554.82</ele>
        <time>2015-02-19T11:08:48Z</time>
      </trkpt>
      <trkpt lat="43.77796" lon="3.54018">
        <ele>555.3</ele>
        <time>2015-02-19T11:09:00Z</time>
      </trkpt>
      <trkpt lat="43.7779" lon="3.54003">
        <ele>553.86</ele>
        <time>2015-02-19T11:09:09Z</time>
      </trkpt>
      <trkpt lat="43.77782" lon="3.53986">
        <ele>551.45</ele>
        <time>2015-02-19T11:09:19Z</time>
      </trkpt>
      <trkpt lat="43.77773" lon="3.53978">
        <ele>547.61</ele>
        <time>2015-02-19T11:09:29Z</time>
      </trkpt>
      <trkpt lat="43.77773" lon="3.53976">
        <ele>548.09</ele>
        <time>2015-02-19T11:09:43Z</time>
      </trkpt>
      <trkpt lat="43.77773" lon="3.53977">
        <ele>548.57</ele>
        <time>2015-02-19T11:09:58Z</time>
      </trkpt>
      <trkpt lat="43.77773" lon="3.53976">
        <ele>549.53</ele>
        <time>2015-02-19T11:10:18Z</time>
      </trkpt>
      <trkpt lat="43.77773" lon="3.53977">
        <ele>550.01</ele>
        <time>2015-02-19T11:10:40Z</time>
      </trkpt>
    </trkseg>
  </trk>
</gpx>